Observation data for Throckmorton on 02/11/2018      Previous  Date  Next       Current Mesonet Observations  Soil Data  Daily Summary Page  Observations in Plain Language
KTH1 110600Z 35006KT M06/M11 A3009 RMK A01 T10591108  RH  068%=      5-min Rain = 0
KTH1 110601Z 36006KT M06/M11 A3009 RMK A01 T10591107  RH  069%=      5-min Rain = 0
KTH1 110602Z 36007KT M06/M11 A3008 RMK A01 T10591107  RH  069%=      5-min Rain = 0
KTH1 110603Z 01007KT M06/M11 A3008 RMK A01 T10591107  RH  069%=      5-min Rain = 0
KTH1 110604Z 01007KT M06/M11 A3008 RMK A01 T10591108  RH  069%=      5-min Rain = 0
KTH1 110605Z 01006KT M06/M11 A3008 RMK A01 T10591108  RH  069%=      5-min Rain = 0
KTH1 110606Z 02006KT M06/M11 A3007 RMK A01 T10591108  RH  069%=      5-min Rain = 0
KTH1 110607Z 00006KT M06/M11 A3008 RMK A01 T10601108  RH  069%=      5-min Rain = 0
KTH1 110608Z 36006KT M06/M11 A3008 RMK A01 T10601108  RH  069%=      5-min Rain = 0
KTH1 110609Z 01005KT M06/M11 A3008 RMK A01 T10601108  RH  069%=      5-min Rain = 0
KTH1 110610Z 01005KT M06/M11 A3008 RMK A01 T10601108  RH  069%=      5-min Rain = 0
KTH1 110611Z 01006KT M06/M11 A3008 RMK A01 T10611108  RH  069%=      5-min Rain = 0
KTH1 110612Z 01006KT M06/M11 A3008 RMK A01 T10611108  RH  069%=      5-min Rain = 0
KTH1 110613Z 00007KT M06/M11 A3008 RMK A01 T10611108  RH  069%=      5-min Rain = 0
KTH1 110614Z 36006KT M06/M11 A3007 RMK A01 T10611108  RH  069%=      5-min Rain = 0
KTH1 110615Z 01006KT M06/M11 A3007 RMK A01 T10611108  RH  069%=      5-min Rain = 0
KTH1 110616Z 01004KT M06/M11 A3007 RMK A01 T10611108  RH  069%=      5-min Rain = 0
KTH1 110617Z 01006KT M06/M11 A3007 RMK A01 T10611108  RH  069%=      5-min Rain = 0
KTH1 110618Z 01006KT M06/M11 A3007 RMK A01 T10621108  RH  070%=      5-min Rain = 0
KTH1 110619Z 00004KT M06/M11 A3007 RMK A01 T10621108  RH  070%=      5-min Rain = 0
KTH1 110620Z 01005KT M06/M11 A3007 RMK A01 T10621108  RH  070%=      5-min Rain = 0
KTH1 110621Z 00003KT M06/M11 A3007 RMK A01 T10631108  RH  070%=      5-min Rain = 0
KTH1 110622Z 01005KT M06/M11 A3007 RMK A01 T10631108  RH  070%=      5-min Rain = 0
KTH1 110623Z 01004KT M06/M11 A3007 RMK A01 T10631108  RH  070%=      5-min Rain = 0
KTH1 110624Z 01005KT M06/M11 A3007 RMK A01 T10631109  RH  070%=      5-min Rain = 0
KTH1 110625Z 00006KT M06/M11 A3007 RMK A01 T10631108  RH  070%=      5-min Rain = 0
KTH1 110626Z 01006KT M06/M11 A3007 RMK A01 T10641108  RH  070%=      5-min Rain = 0
KTH1 110627Z 36006KT M06/M11 A3007 RMK A01 T10631108  RH  070%=      5-min Rain = 0
KTH1 110628Z 01005KT M06/M11 A3007 RMK A01 T10641109  RH  070%=      5-min Rain = 0
KTH1 110629Z 00007KT M06/M11 A3007 RMK A01 T10641109  RH  070%=      5-min Rain = 0
KTH1 110630Z 00006KT M06/M11 A3007 RMK A01 T10641109  RH  070%=      5-min Rain = 0
KTH1 110631Z 01006KT M06/M11 A3007 RMK A01 T10641109  RH  070%=      5-min Rain = 0
KTH1 110632Z 36007KT M06/M11 A3007 RMK A01 T10631109  RH  070%=      5-min Rain = 0
KTH1 110633Z 35007KT M06/M11 A3007 RMK A01 T10641109  RH  070%=      5-min Rain = 0
KTH1 110634Z 00006KT M06/M11 A3007 RMK A01 T10641109  RH  070%=      5-min Rain = 0
KTH1 110635Z 36007KT M06/M11 A3007 RMK A01 T10641109  RH  070%=      5-min Rain = 0
KTH1 110636Z 36009KT M06/M11 A3007 RMK A01 T10641109  RH  070%=      5-min Rain = 0
KTH1 110637Z 35008KT M06/M11 A3007 RMK A01 T10631109  RH  070%=      5-min Rain = 0
KTH1 110638Z 00005KT M06/M11 A3007 RMK A01 T10641110  RH  070%=      5-min Rain = 0
KTH1 110639Z 36006KT M06/M11 A3007 RMK A01 T10641110  RH  070%=      5-min Rain = 0
KTH1 110640Z 36008KT M06/M11 A3007 RMK A01 T10641109  RH  070%=      5-min Rain = 0
KTH1 110641Z 35007KT M06/M11 A3007 RMK A01 T10641109  RH  070%=      5-min Rain = 0
KTH1 110642Z 36005KT M06/M11 A3007 RMK A01 T10641110  RH  070%=      5-min Rain = 0
KTH1 110643Z 36006KT M06/M11 A3007 RMK A01 T10641109  RH  070%=      5-min Rain = 0
KTH1 110644Z 36007KT M06/M11 A3007 RMK A01 T10641109  RH  070%=      5-min Rain = 0
KTH1 110645Z 01008KT M06/M11 A3007 RMK A01 T10631109  RH  070%=      5-min Rain = 0
KTH1 110646Z 01008KT M06/M11 A3008 RMK A01 T10641110  RH  070%=      5-min Rain = 0
KTH1 110647Z 36007KT M06/M11 A3008 RMK A01 T10641111  RH  069%=      5-min Rain = 0
KTH1 110648Z 36005KT M06/M11 A3008 RMK A01 T10641110  RH  070%=      5-min Rain = 0
KTH1 110649Z 36006KT M06/M11 A3008 RMK A01 T10631110  RH  070%=      5-min Rain = 0
KTH1 110650Z 36005KT M06/M11 A3008 RMK A01 T10641110  RH  070%=      5-min Rain = 0
KTH1 110651Z 36007KT M06/M11 A3008 RMK A01 T10641110  RH  070%=      5-min Rain = 0
KTH1 110652Z 00006KT M06/M11 A3009 RMK A01 T10641110  RH  070%=      5-min Rain = 0
KTH1 110653Z 36006KT M06/M11 A3009 RMK A01 T10641110  RH  070%=      5-min Rain = 0
KTH1 110654Z 35007KT M06/M11 A3009 RMK A01 T10641110  RH  070%=      5-min Rain = 0
KTH1 110655Z 36005KT M06/M11 A3009 RMK A01 T10631109  RH  070%=      5-min Rain = 0
KTH1 110656Z 35008KT M06/M11 A3009 RMK A01 T10641110  RH  070%=      5-min Rain = 0
KTH1 110657Z 35006KT M06/M11 A3008 RMK A01 T10641110  RH  070%=      5-min Rain = 0
KTH1 110658Z 36006KT M06/M11 A3008 RMK A01 T10641110  RH  070%=      5-min Rain = 0
KTH1 110659Z 35007KT M06/M11 A3008 RMK A01 T10631110  RH  070%=      5-min Rain = 0
KTH1 110700Z 36006KT M06/M11 A3009 RMK A01 T10641109  RH  070%=      5-min Rain = 0
KTH1 110701Z 35007KT M06/M11 A3008 RMK A01 T10641109  RH  070%=      5-min Rain = 0
KTH1 110702Z 34007KT M06/M11 A3008 RMK A01 T10641109  RH  070%=      5-min Rain = 0
KTH1 110703Z 35006KT M06/M11 A3008 RMK A01 T10641110  RH  070%=      5-min Rain = 0
KTH1 110704Z 36007KT M06/M11 A3008 RMK A01 T10641110  RH  070%=      5-min Rain = 0
KTH1 110705Z 36006KT M06/M11 A3008 RMK A01 T10641110  RH  070%=      5-min Rain = 0
KTH1 110706Z 35006KT M06/M11 A3008 RMK A01 T10641110  RH  070%=      5-min Rain = 0
KTH1 110707Z 36006KT M07/M11 A3008 RMK A01 T10651110  RH  070%=      5-min Rain = 0
KTH1 110708Z 35006KT M06/M11 A3008 RMK A01 T10641110  RH  070%=      5-min Rain = 0
KTH1 110709Z 36007KT M07/M11 A3008 RMK A01 T10651111  RH  070%=      5-min Rain = 0
KTH1 110710Z 35006KT M07/M11 A3008 RMK A01 T10651111  RH  070%=      5-min Rain = 0
KTH1 110711Z 35005KT M07/M11 A3008 RMK A01 T10651110  RH  070%=      5-min Rain = 0
KTH1 110712Z 36007KT M07/M11 A3008 RMK A01 T10651110  RH  070%=      5-min Rain = 0
KTH1 110713Z 35007KT M06/M11 A3008 RMK A01 T10641110  RH  070%=      5-min Rain = 0
KTH1 110714Z 35007KT M06/M11 A3008 RMK A01 T10641110  RH  070%=      5-min Rain = 0
KTH1 110715Z 35005KT M07/M11 A3008 RMK A01 T10651110  RH  070%=      5-min Rain = 0
KTH1 110716Z 35005KT M07/M11 A3009 RMK A01 T10651109  RH  071%=      5-min Rain = 0
KTH1 110717Z 35006KT M07/M11 A3009 RMK A01 T10651109  RH  071%=      5-min Rain = 0
KTH1 110718Z 35005KT M06/M11 A3009 RMK A01 T10641108  RH  071%=      5-min Rain = 0
KTH1 110719Z 35007KT M06/M11 A3009 RMK A01 T10641107  RH  071%=      5-min Rain = 0
KTH1 110720Z 35006KT M06/M11 A3009 RMK A01 T10631107  RH  071%=      5-min Rain = 0
KTH1 110721Z 35005KT M06/M11 A3009 RMK A01 T10631108  RH  070%=      5-min Rain = 0
KTH1 110722Z 35006KT M06/M11 A3008 RMK A01 T10621106  RH  071%=      5-min Rain = 0
KTH1 110723Z 35007KT M06/M11 A3008 RMK A01 T10621107  RH  071%=      5-min Rain = 0
KTH1 110724Z 36007KT M06/M11 A3008 RMK A01 T10621108  RH  070%=      5-min Rain = 0
KTH1 110725Z 35006KT M06/M11 A3008 RMK A01 T10621109  RH  070%=      5-min Rain = 0
KTH1 110726Z 35006KT M06/M11 A3008 RMK A01 T10621109  RH  070%=      5-min Rain = 0
KTH1 110727Z 36006KT M06/M11 A3008 RMK A01 T10621108  RH  070%=      5-min Rain = 0
KTH1 110728Z 00005KT M06/M11 A3008 RMK A01 T10621109  RH  070%=      5-min Rain = 0
KTH1 110729Z 01003KT M06/M11 A3008 RMK A01 T10621109  RH  069%=      5-min Rain = 0
KTH1 110730Z 36004KT M06/M11 A3009 RMK A01 T10621108  RH  070%=      5-min Rain = 0
KTH1 110731Z 36007KT M06/M11 A3009 RMK A01 T10611108  RH  069%=      5-min Rain = 0
KTH1 110732Z 35006KT M06/M11 A3009 RMK A01 T10611109  RH  069%=      5-min Rain = 0
KTH1 110733Z 01006KT M06/M11 A3009 RMK A01 T10611109  RH  069%=      5-min Rain = 0
KTH1 110734Z 00005KT M06/M11 A3009 RMK A01 T10621110  RH  069%=      5-min Rain = 0
KTH1 110735Z 35006KT M06/M11 A3009 RMK A01 T10621110  RH  069%=      5-min Rain = 0
KTH1 110736Z 35006KT M06/M11 A3009 RMK A01 T10621109  RH  069%=      5-min Rain = 0
KTH1 110737Z 35008KT M06/M11 A3009 RMK A01 T10621110  RH  069%=      5-min Rain = 0
KTH1 110738Z 35007KT M06/M11 A3009 RMK A01 T10621109  RH  069%=      5-min Rain = 0
KTH1 110739Z 35007KT M06/M11 A3009 RMK A01 T10611109  RH  069%=      5-min Rain = 0
KTH1 110740Z 35006KT M06/M11 A3009 RMK A01 T10611108  RH  069%=      5-min Rain = 0
KTH1 110741Z 00007KT M06/M11 A3009 RMK A01 T10611108  RH  070%=      5-min Rain = 0
KTH1 110742Z 36005KT M06/M11 A3009 RMK A01 T10611108  RH  069%=      5-min Rain = 0
KTH1 110743Z 34005KT M06/M11 A3009 RMK A01 T10611107  RH  070%=      5-min Rain = 0
KTH1 110744Z 34008KT M06/M11 A3009 RMK A01 T10601106  RH  070%=      5-min Rain = 0
KTH1 110745Z 35008KT M06/M11 A3009 RMK A01 T10601107  RH  070%=      5-min Rain = 0
KTH1 110746Z 35007KT M06/M11 A3009 RMK A01 T10611107  RH  070%=      5-min Rain = 0
KTH1 110747Z 35007KT M06/M11 A3009 RMK A01 T10601107  RH  070%=      5-min Rain = 0
KTH1 110748Z 34006KT M06/M11 A3009 RMK A01 T10601107  RH  069%=      5-min Rain = 0
KTH1 110749Z 35005KT M06/M11 A3009 RMK A01 T10601108  RH  069%=      5-min Rain = 0
KTH1 110750Z 35008KT M06/M11 A3009 RMK A01 T10601107  RH  069%=      5-min Rain = 0
KTH1 110751Z 35007KT M06/M11 A301 RMK A01 T10601107  RH  069%=      5-min Rain = 0
KTH1 110752Z 33006KT M06/M11 A301 RMK A01 T10601107  RH  069%=      5-min Rain = 0
KTH1 110753Z 34007KT M06/M11 A301 RMK A01 T10591106  RH  069%=      5-min Rain = 0
KTH1 110754Z 33005KT M06/M11 A301 RMK A01 T10591106  RH  069%=      5-min Rain = 0
KTH1 110755Z 35006KT M06/M11 A301 RMK A01 T10591105  RH  070%=      5-min Rain = 0
KTH1 110756Z 35005KT M06/M11 A301 RMK A01 T10591105  RH  070%=      5-min Rain = 0
KTH1 110757Z 35006KT M06/M11 A301 RMK A01 T10581105  RH  069%=      5-min Rain = 0
KTH1 110758Z 33005KT M06/M11 A301 RMK A01 T10581105  RH  070%=      5-min Rain = 0
KTH1 110759Z 34005KT M06/M10 A3011 RMK A01 T10581104  RH  070%=      5-min Rain = 0
KTH1 110800Z 34008KT M06/M11 A3011 RMK A01 T10581105  RH  069%=      5-min Rain = 0
KTH1 110801Z 34009KT M06/M11 A3011 RMK A01 T10581106  RH  069%=      5-min Rain = 0
KTH1 110802Z 34007KT M06/M11 A3011 RMK A01 T10581107  RH  068%=      5-min Rain = 0
KTH1 110803Z 34008KT M06/M11 A3011 RMK A01 T10581106  RH  069%=      5-min Rain = 0
KTH1 110804Z 34008KT M06/M11 A3011 RMK A01 T10581106  RH  069%=      5-min Rain = 0
KTH1 110805Z 34008KT M06/M11 A301 RMK A01 T10581106  RH  069%=      5-min Rain = 0
KTH1 110806Z 34008G14KT M06/M11 A301 RMK A01 T10571106  RH  069%=      5-min Rain = 0
KTH1 110807Z 35007KT M06/M11 A3011 RMK A01 T10581106  RH  068%=      5-min Rain = 0
KTH1 110808Z 35011KT M06/M11 A3011 RMK A01 T10571105  RH  069%=      5-min Rain = 0
KTH1 110809Z 34010KT M06/M11 A3011 RMK A01 T10571106  RH  068%=      5-min Rain = 0
KTH1 110810Z 35007KT M06/M11 A301 RMK A01 T10571107  RH  068%=      5-min Rain = 0
KTH1 110811Z 35008KT M06/M11 A301 RMK A01 T10571106  RH  069%=      5-min Rain = 0
KTH1 110812Z 35012KT M06/M11 A301 RMK A01 T10571105  RH  069%=      5-min Rain = 0
KTH1 110813Z 35011G16KT M06/M11 A301 RMK A01 T10571106  RH  068%=      5-min Rain = 0
KTH1 110814Z 34007KT M06/M11 A301 RMK A01 T10571106  RH  068%=      5-min Rain = 0
KTH1 110815Z 35008KT M06/M11 A301 RMK A01 T10561105  RH  069%=      5-min Rain = 0
KTH1 110816Z 35010KT M06/M11 A301 RMK A01 T10561105  RH  069%=      5-min Rain = 0
KTH1 110817Z 35009KT M06/M11 A301 RMK A01 T10561106  RH  068%=      5-min Rain = 0
KTH1 110818Z 36008G13KT M06/M11 A301 RMK A01 T10561106  RH  068%=      5-min Rain = 0
KTH1 110819Z 36008KT M06/M11 A301 RMK A01 T10561106  RH  068%=      5-min Rain = 0
KTH1 110820Z 35009KT M06/M11 A301 RMK A01 T10561105  RH  068%=      5-min Rain = 0
KTH1 110821Z 35011KT M06/M11 A301 RMK A01 T10561106  RH  068%=      5-min Rain = 0
KTH1 110822Z 34010KT M06/M11 A301 RMK A01 T10561107  RH  067%=      5-min Rain = 0
KTH1 110823Z 35010G15KT M06/M11 A301 RMK A01 T10561107  RH  067%=      5-min Rain = 0
KTH1 110824Z 35012KT M06/M11 A301 RMK A01 T10561107  RH  067%=      5-min Rain = 0
KTH1 110825Z 34009KT M06/M11 A301 RMK A01 T10561107  RH  068%=      5-min Rain = 0
KTH1 110826Z 34008KT M06/M11 A301 RMK A01 T10561105  RH  068%=      5-min Rain = 0
KTH1 110827Z 35012G19KT M06/M11 A301 RMK A01 T10551105  RH  068%=      5-min Rain = 0
KTH1 110828Z 34014G19KT M06/M11 A301 RMK A01 T10551107  RH  067%=      5-min Rain = 0
KTH1 110829Z 35010G15KT M06/M11 A301 RMK A01 T10561107  RH  067%=      5-min Rain = 0
KTH1 110830Z 35009G14KT M06/M11 A301 RMK A01 T10561108  RH  067%=      5-min Rain = 0
KTH1 110831Z 33009KT M06/M11 A301 RMK A01 T10561106  RH  068%=      5-min Rain = 0
KTH1 110832Z 34011KT M06/M11 A301 RMK A01 T10551106  RH  068%=      5-min Rain = 0
KTH1 110833Z 34010G15KT M06/M11 A301 RMK A01 T10551106  RH  067%=      5-min Rain = 0
KTH1 110834Z 34010G17KT M06/M11 A301 RMK A01 T10551106  RH  067%=      5-min Rain = 0
KTH1 110835Z 35012KT M06/M11 A301 RMK A01 T10551108  RH  067%=      5-min Rain = 0
KTH1 110836Z 34014KT M06/M11 A301 RMK A01 T10561109  RH  066%=      5-min Rain = 0
KTH1 110837Z 35013KT M06/M11 A301 RMK A01 T10561109  RH  066%=      5-min Rain = 0
KTH1 110838Z 35011KT M06/M11 A301 RMK A01 T10561109  RH  066%=      5-min Rain = 0
KTH1 110839Z 35011G18KT M06/M11 A301 RMK A01 T10561109  RH  067%=      5-min Rain = 0
KTH1 110840Z 35013KT M06/M11 A301 RMK A01 T10561108  RH  067%=      5-min Rain = 0
KTH1 110841Z 35013G19KT M06/M11 A301 RMK A01 T10561108  RH  067%=      5-min Rain = 0
KTH1 110842Z 34011G17KT M06/M11 A301 RMK A01 T10561108  RH  066%=      5-min Rain = 0
KTH1 110843Z 34014KT M06/M11 A301 RMK A01 T10561109  RH  066%=      5-min Rain = 0
KTH1 110844Z 34013KT M06/M11 A301 RMK A01 T10561109  RH  066%=      5-min Rain = 0
KTH1 110845Z 34008G14KT M06/M11 A301 RMK A01 T10561108  RH  066%=      5-min Rain = 0
KTH1 110846Z 34010G16KT M06/M11 A301 RMK A01 T10551106  RH  068%=      5-min Rain = 0
KTH1 110847Z 35013KT M06/M11 A301 RMK A01 T10551107  RH  067%=      5-min Rain = 0
KTH1 110848Z 35014KT M06/M11 A301 RMK A01 T10551108  RH  066%=      5-min Rain = 0
KTH1 110849Z 36013G19KT M06/M11 A301 RMK A01 T10551108  RH  066%=      5-min Rain = 0
KTH1 110850Z 35011KT M06/M11 A301 RMK A01 T10551109  RH  066%=      5-min Rain = 0
KTH1 110851Z 35010KT M06/M11 A301 RMK A01 T10551107  RH  067%=      5-min Rain = 0
KTH1 110852Z 34010KT M06/M11 A301 RMK A01 T10551107  RH  067%=      5-min Rain = 0
KTH1 110853Z 34014KT M06/M11 A301 RMK A01 T10551108  RH  067%=      5-min Rain = 0
KTH1 110854Z 34012G17KT M06/M11 A301 RMK A01 T10551108  RH  066%=      5-min Rain = 0
KTH1 110855Z 34011KT M06/M11 A301 RMK A01 T10551107  RH  067%=      5-min Rain = 0
KTH1 110856Z 34010G16KT M06/M11 A301 RMK A01 T10551106  RH  067%=      5-min Rain = 0
KTH1 110857Z 35013KT M05/M11 A301 RMK A01 T10541106  RH  067%=      5-min Rain = 0
KTH1 110858Z 35010G18KT M05/M11 A301 RMK A01 T10541107  RH  066%=      5-min Rain = 0
KTH1 110859Z 35011KT M06/M11 A301 RMK A01 T10551107  RH  067%=      5-min Rain = 0
KTH1 110900Z 34012KT M05/M11 A301 RMK A01 T10541107  RH  067%=      5-min Rain = 0
KTH1 110901Z 35011KT M05/M11 A301 RMK A01 T10541107  RH  067%=      5-min Rain = 0
KTH1 110902Z 34009KT M05/M11 A301 RMK A01 T10541106  RH  067%=      5-min Rain = 0
KTH1 110903Z 35011G18KT M06/M11 A301 RMK A01 T10551106  RH  067%=      5-min Rain = 0
KTH1 110904Z 00011G17KT M05/M11 A301 RMK A01 T10541107  RH  066%=      5-min Rain = 0
KTH1 110905Z 36009KT M06/M11 A301 RMK A01 T10551109  RH  066%=      5-min Rain = 0
KTH1 110906Z 35012KT M06/M11 A301 RMK A01 T10551108  RH  066%=      5-min Rain = 0
KTH1 110907Z 35010KT M06/M11 A301 RMK A01 T10551108  RH  066%=      5-min Rain = 0
KTH1 110908Z 35010KT M06/M11 A301 RMK A01 T10551107  RH  066%=      5-min Rain = 0
KTH1 110909Z 35011KT M05/M11 A301 RMK A01 T10541107  RH  066%=      5-min Rain = 0
KTH1 110910Z 34009G14KT M06/M11 A301 RMK A01 T10551107  RH  067%=      5-min Rain = 0
KTH1 110911Z 35010KT M05/M11 A301 RMK A01 T10541106  RH  067%=      5-min Rain = 0
KTH1 110912Z 35009KT M05/M11 A3011 RMK A01 T10541105  RH  067%=      5-min Rain = 0
KTH1 110913Z 34007KT M05/M11 A301 RMK A01 T10541105  RH  067%=      5-min Rain = 0
KTH1 110914Z 00013KT M05/M11 A3011 RMK A01 T10531105  RH  067%=      5-min Rain = 0
KTH1 110915Z 35009KT M05/M11 A3011 RMK A01 T10541107  RH  066%=      5-min Rain = 0
KTH1 110916Z 34011KT M05/M11 A3011 RMK A01 T10531105  RH  067%=      5-min Rain = 0
KTH1 110917Z 34011KT M05/M11 A3011 RMK A01 T10531105  RH  067%=      5-min Rain = 0
KTH1 110918Z 35009G15KT M05/M11 A3011 RMK A01 T10541106  RH  067%=      5-min Rain = 0
KTH1 110919Z 34015G21KT M05/M11 A3011 RMK A01 T10531106  RH  067%=      5-min Rain = 0
KTH1 110920Z 35013KT M05/M11 A3011 RMK A01 T10541108  RH  066%=      5-min Rain = 0
KTH1 110921Z 36012KT M05/M11 A3011 RMK A01 T10541107  RH  066%=      5-min Rain = 0
KTH1 110922Z 35011G17KT M05/M11 A3011 RMK A01 T10541106  RH  067%=      5-min Rain = 0
KTH1 110923Z 33009G15KT M05/M11 A3011 RMK A01 T10541106  RH  067%=      5-min Rain = 0
KTH1 110924Z 34011KT M05/M11 A3011 RMK A01 T10541105  RH  067%=      5-min Rain = 0
KTH1 110925Z 34011G16KT M05/M11 A3011 RMK A01 T10541105  RH  067%=      5-min Rain = 0
KTH1 110926Z 33008KT M05/M11 A3012 RMK A01 T10541105  RH  067%=      5-min Rain = 0
KTH1 110927Z 34009KT M05/M10 A3012 RMK A01 T10531104  RH  068%=      5-min Rain = 0
KTH1 110928Z 34011G16KT M05/M10 A3012 RMK A01 T10521104  RH  067%=      5-min Rain = 0
KTH1 110929Z 35011G18KT M05/M11 A3011 RMK A01 T10521105  RH  067%=      5-min Rain = 0
KTH1 110930Z 35012G18KT M05/M11 A3012 RMK A01 T10531106  RH  066%=      5-min Rain = 0
KTH1 110931Z 34010G15KT M05/M11 A3012 RMK A01 T10541106  RH  066%=      5-min Rain = 0
KTH1 110932Z 34010KT M05/M11 A3012 RMK A01 T10531105  RH  067%=      5-min Rain = 0
KTH1 110933Z 34011KT M05/M11 A3012 RMK A01 T10541105  RH  067%=      5-min Rain = 0
KTH1 110934Z 35011G16KT M05/M11 A3012 RMK A01 T10531106  RH  067%=      5-min Rain = 0
KTH1 110935Z 34014KT M05/M11 A3012 RMK A01 T10531106  RH  066%=      5-min Rain = 0
KTH1 110936Z 35014KT M05/M11 A3012 RMK A01 T10541107  RH  066%=      5-min Rain = 0
KTH1 110937Z 35015KT M05/M11 A3012 RMK A01 T10541107  RH  066%=      5-min Rain = 0
KTH1 110938Z 35010G17KT M05/M11 A3012 RMK A01 T10541108  RH  066%=      5-min Rain = 0
KTH1 110939Z 35013KT M06/M11 A3012 RMK A01 T10551106  RH  067%=      5-min Rain = 0
KTH1 110940Z 35012G17KT M05/M11 A3012 RMK A01 T10541106  RH  067%=      5-min Rain = 0
KTH1 110941Z 35014G21KT M05/M11 A3012 RMK A01 T10541107  RH  067%=      5-min Rain = 0
KTH1 110942Z 35013KT M06/M11 A3012 RMK A01 T10551107  RH  067%=      5-min Rain = 0
KTH1 110943Z 35013G18KT M05/M11 A3012 RMK A01 T10541106  RH  067%=      5-min Rain = 0
KTH1 110944Z 35012KT M05/M11 A3012 RMK A01 T10541106  RH  067%=      5-min Rain = 0
KTH1 110945Z 35011KT M05/M11 A3012 RMK A01 T10541106  RH  067%=      5-min Rain = 0
KTH1 110946Z 35014KT M05/M11 A3012 RMK A01 T10541106  RH  067%=      5-min Rain = 0
KTH1 110947Z 35011G16KT M05/M11 A3012 RMK A01 T10541106  RH  067%=      5-min Rain = 0
KTH1 110948Z 35011KT M05/M11 A3012 RMK A01 T10541105  RH  067%=      5-min Rain = 0
KTH1 110949Z 35010KT M05/M11 A3013 RMK A01 T10541105  RH  067%=      5-min Rain = 0
KTH1 110950Z 35011KT M05/M11 A3013 RMK A01 T10541106  RH  067%=      5-min Rain = 0
KTH1 110951Z 35014G20KT M05/M11 A3013 RMK A01 T10541106  RH  067%=      5-min Rain = 0
KTH1 110952Z 34012KT M05/M11 A3013 RMK A01 T10541106  RH  067%=      5-min Rain = 0
KTH1 110953Z 35010KT M05/M11 A3013 RMK A01 T10541106  RH  067%=      5-min Rain = 0
KTH1 110954Z 36012KT M05/M11 A3013 RMK A01 T10541106  RH  067%=      5-min Rain = 0
KTH1 110955Z 35011G16KT M06/M11 A3013 RMK A01 T10551106  RH  067%=      5-min Rain = 0
KTH1 110956Z 35012KT M05/M11 A3012 RMK A01 T10541106  RH  067%=      5-min Rain = 0
KTH1 110957Z 35009KT M05/M11 A3013 RMK A01 T10541105  RH  067%=      5-min Rain = 0
KTH1 110958Z 35010KT M05/M11 A3013 RMK A01 T10541105  RH  068%=      5-min Rain = 0
KTH1 110959Z 34009KT M05/M11 A3013 RMK A01 T10541105  RH  067%=      5-min Rain = 0
KTH1 111000Z 34008KT M05/M11 A3013 RMK A01 T10541105  RH  067%=      5-min Rain = 0
KTH1 111001Z 34009G14KT M05/M10 A3013 RMK A01 T10531103  RH  068%=      5-min Rain = 0
KTH1 111002Z 34010KT M05/M10 A3013 RMK A01 T10531104  RH  067%=      5-min Rain = 0
KTH1 111003Z 35009KT M05/M11 A3013 RMK A01 T10531105  RH  067%=      5-min Rain = 0
KTH1 111004Z 35008KT M05/M10 A3013 RMK A01 T10531104  RH  067%=      5-min Rain = 0
KTH1 111005Z 34010KT M05/M11 A3013 RMK A01 T10531105  RH  067%=      5-min Rain = 0
KTH1 111006Z 35010KT M05/M10 A3013 RMK A01 T10531104  RH  067%=      5-min Rain = 0
KTH1 111007Z 35012KT M05/M11 A3013 RMK A01 T10531105  RH  067%=      5-min Rain = 0
KTH1 111008Z 34010KT M05/M11 A3013 RMK A01 T10531105  RH  067%=      5-min Rain = 0
KTH1 111009Z 35013KT M05/M11 A3013 RMK A01 T10531105  RH  067%=      5-min Rain = 0
KTH1 111010Z 34010KT M05/M11 A3013 RMK A01 T10531105  RH  067%=      5-min Rain = 0
KTH1 111011Z 34010KT M05/M11 A3013 RMK A01 T10531105  RH  067%=      5-min Rain = 0
KTH1 111012Z 34009KT M05/M11 A3013 RMK A01 T10531105  RH  067%=      5-min Rain = 0
KTH1 111013Z 34011G16KT M05/M11 A3013 RMK A01 T10531105  RH  067%=      5-min Rain = 0
KTH1 111014Z 34009KT M05/M10 A3013 RMK A01 T10521104  RH  067%=      5-min Rain = 0
KTH1 111015Z 35013KT M05/M10 A3013 RMK A01 T10531104  RH  067%=      5-min Rain = 0
KTH1 111016Z 35013G19KT M05/M11 A3013 RMK A01 T10531105  RH  067%=      5-min Rain = 0
KTH1 111017Z 34014KT M05/M11 A3013 RMK A01 T10521105  RH  067%=      5-min Rain = 0
KTH1 111018Z 34011G17KT M05/M11 A3013 RMK A01 T10531105  RH  067%=      5-min Rain = 0
KTH1 111019Z 34012G18KT M05/M10 A3013 RMK A01 T10531104  RH  067%=      5-min Rain = 0
KTH1 111020Z 34011KT M05/M10 A3013 RMK A01 T10531104  RH  067%=      5-min Rain = 0
KTH1 111021Z 33013KT M05/M10 A3013 RMK A01 T10521102  RH  068%=      5-min Rain = 0
KTH1 111022Z 34013KT M05/M10 A3013 RMK A01 T10521103  RH  067%=      5-min Rain = 0
KTH1 111023Z 34012KT M05/M10 A3013 RMK A01 T10521104  RH  067%=      5-min Rain = 0
KTH1 111024Z 34011KT M05/M10 A3013 RMK A01 T10521104  RH  067%=      5-min Rain = 0
KTH1 111025Z 34007KT M05/M10 A3013 RMK A01 T10521104  RH  067%=      5-min Rain = 0
KTH1 111026Z 35008KT M05/M10 A3013 RMK A01 T10521103  RH  067%=      5-min Rain = 0
KTH1 111027Z 00008KT M05/M10 A3013 RMK A01 T10521104  RH  067%=      5-min Rain = 0
KTH1 111028Z 35010KT M05/M10 A3014 RMK A01 T10521104  RH  067%=      5-min Rain = 0
KTH1 111029Z 00009KT M05/M10 A3014 RMK A01 T10521104  RH  067%=      5-min Rain = 0
KTH1 111030Z 36010KT M05/M11 A3013 RMK A01 T10531106  RH  066%=      5-min Rain = 0
KTH1 111031Z 35009KT M05/M11 A3014 RMK A01 T10531106  RH  066%=      5-min Rain = 0
KTH1 111032Z 35009G14KT M05/M11 A3014 RMK A01 T10531105  RH  067%=      5-min Rain = 0
KTH1 111033Z 35010KT M05/M11 A3014 RMK A01 T10531105  RH  067%=      5-min Rain = 0
KTH1 111034Z 00009G14KT M05/M11 A3014 RMK A01 T10531105  RH  067%=      5-min Rain = 0
KTH1 111035Z 35008KT M05/M11 A3014 RMK A01 T10531105  RH  067%=      5-min Rain = 0
KTH1 111036Z 36009KT M05/M11 A3014 RMK A01 T10531105  RH  067%=      5-min Rain = 0
KTH1 111037Z 35009KT M05/M11 A3014 RMK A01 T10531105  RH  067%=      5-min Rain = 0
KTH1 111038Z 36005KT M05/M11 A3014 RMK A01 T10531105  RH  067%=      5-min Rain = 0
KTH1 111039Z 35007KT M05/M10 A3014 RMK A01 T10531104  RH  067%=      5-min Rain = 0
KTH1 111040Z 36010G16KT M05/M11 A3014 RMK A01 T10531105  RH  067%=      5-min Rain = 0
KTH1 111041Z 35009KT M05/M11 A3014 RMK A01 T10531106  RH  066%=      5-min Rain = 0
KTH1 111042Z 35007KT M05/M11 A3014 RMK A01 T10531105  RH  067%=      5-min Rain = 0
KTH1 111043Z 36009KT M05/M10 A3014 RMK A01 T10531103  RH  068%=      5-min Rain = 0
KTH1 111044Z 35009KT M05/M10 A3014 RMK A01 T10531104  RH  067%=      5-min Rain = 0
KTH1 111045Z 35009KT M05/M10 A3014 RMK A01 T10531104  RH  067%=      5-min Rain = 0
KTH1 111046Z 34010KT M05/M10 A3014 RMK A01 T10531104  RH  067%=      5-min Rain = 0
KTH1 111047Z 35008KT M05/M10 A3014 RMK A01 T10531104  RH  067%=      5-min Rain = 0
KTH1 111048Z 35009KT M05/M10 A3014 RMK A01 T10531104  RH  067%=      5-min Rain = 0
KTH1 111049Z 34008KT M05/M10 A3014 RMK A01 T10521103  RH  067%=      5-min Rain = 0
KTH1 111050Z 34007KT M05/M10 A3014 RMK A01 T10521103  RH  067%=      5-min Rain = 0
KTH1 111051Z 35008KT M05/M10 A3014 RMK A01 T10511101  RH  068%=      5-min Rain = 0
KTH1 111052Z 34008KT M05/M10 A3014 RMK A01 T10511102  RH  067%=      5-min Rain = 0
KTH1 111053Z 35011G16KT M05/M10 A3014 RMK A01 T10511103  RH  067%=      5-min Rain = 0
KTH1 111054Z 35011KT M05/M10 A3014 RMK A01 T10511104  RH  067%=      5-min Rain = 0
KTH1 111055Z 34012KT M05/M10 A3014 RMK A01 T10511103  RH  067%=      5-min Rain = 0
KTH1 111056Z 34011KT M05/M10 A3014 RMK A01 T10511104  RH  067%=      5-min Rain = 0
KTH1 111057Z 34010KT M05/M10 A3014 RMK A01 T10511104  RH  066%=      5-min Rain = 0
KTH1 111058Z 35012KT M05/M10 A3014 RMK A01 T10511104  RH  066%=      5-min Rain = 0
KTH1 111059Z 36010KT M05/M10 A3014 RMK A01 T10511104  RH  066%=      5-min Rain = 0
KTH1 111100Z 35009G14KT M05/M10 A3014 RMK A01 T10511104  RH  066%=      5-min Rain = 0
KTH1 111101Z 34007KT M05/M10 A3014 RMK A01 T10511104  RH  066%=      5-min Rain = 0
KTH1 111102Z 33010KT M05/M10 A3014 RMK A01 T10501104  RH  066%=      5-min Rain = 0
KTH1 111103Z 34008KT M05/M10 A3015 RMK A01 T10501103  RH  066%=      5-min Rain = 0
KTH1 111104Z 34007G12KT M05/M10 A3015 RMK A01 T10501104  RH  066%=      5-min Rain = 0
KTH1 111105Z 34010G15KT M05/M10 A3015 RMK A01 T10501103  RH  066%=      5-min Rain = 0
KTH1 111106Z 35013G18KT M05/M10 A3015 RMK A01 T10501104  RH  066%=      5-min Rain = 0
KTH1 111107Z 35011KT M05/M11 A3014 RMK A01 T10501105  RH  065%=      5-min Rain = 0
KTH1 111108Z 35012KT M05/M11 A3015 RMK A01 T10501105  RH  065%=      5-min Rain = 0
KTH1 111109Z 35013KT M05/M11 A3015 RMK A01 T10511105  RH  065%=      5-min Rain = 0
KTH1 111110Z 35014G19KT M05/M11 A3015 RMK A01 T10511106  RH  065%=      5-min Rain = 0
KTH1 111111Z 35013G19KT M05/M11 A3015 RMK A01 T10511106  RH  065%=      5-min Rain = 0
KTH1 111112Z 35015G20KT M05/M11 A3015 RMK A01 T10511107  RH  065%=      5-min Rain = 0
KTH1 111113Z 35009G19KT M05/M11 A3015 RMK A01 T10511107  RH  065%=      5-min Rain = 0
KTH1 111114Z 35010G15KT M05/M10 A3015 RMK A01 T10511104  RH  066%=      5-min Rain = 0
KTH1 111115Z 35012G17KT M05/M10 A3015 RMK A01 T10501104  RH  066%=      5-min Rain = 0
KTH1 111116Z 34010KT M05/M11 A3015 RMK A01 T10501105  RH  065%=      5-min Rain = 0
KTH1 111117Z 34014KT M05/M11 A3015 RMK A01 T10501106  RH  065%=      5-min Rain = 0
KTH1 111118Z 35012KT M05/M11 A3015 RMK A01 T10511107  RH  065%=      5-min Rain = 0
KTH1 111119Z 35010G17KT M05/M11 A3015 RMK A01 T10511107  RH  065%=      5-min Rain = 0
KTH1 111120Z 35013G18KT M05/M11 A3015 RMK A01 T10511107  RH  065%=      5-min Rain = 0
KTH1 111121Z 35016G21KT M05/M11 A3015 RMK A01 T10511107  RH  065%=      5-min Rain = 0
KTH1 111122Z 35015KT M05/M11 A3015 RMK A01 T10521108  RH  065%=      5-min Rain = 0
KTH1 111123Z 35013G18KT M05/M11 A3015 RMK A01 T10521109  RH  064%=      5-min Rain = 0
KTH1 111124Z 35010G16KT M05/M11 A3015 RMK A01 T10521108  RH  065%=      5-min Rain = 0
KTH1 111125Z 35007KT M05/M11 A3015 RMK A01 T10521106  RH  066%=      5-min Rain = 0
KTH1 111126Z 34011G17KT M05/M11 A3015 RMK A01 T10521106  RH  065%=      5-min Rain = 0
KTH1 111127Z 35011G16KT M05/M11 A3015 RMK A01 T10511107  RH  065%=      5-min Rain = 0
KTH1 111128Z 34011KT M05/M11 A3015 RMK A01 T10511107  RH  065%=      5-min Rain = 0
KTH1 111129Z 35012KT M05/M11 A3015 RMK A01 T10511107  RH  065%=      5-min Rain = 0
KTH1 111130Z 36008KT M05/M11 A3016 RMK A01 T10511108  RH  065%=      5-min Rain = 0
KTH1 111131Z 36008KT M05/M11 A3016 RMK A01 T10511107  RH  065%=      5-min Rain = 0
KTH1 111132Z 34012G18KT M05/M11 A3016 RMK A01 T10511106  RH  065%=      5-min Rain = 0
KTH1 111133Z 35012KT M05/M11 A3016 RMK A01 T10511107  RH  065%=      5-min Rain = 0
KTH1 111134Z 35014KT M05/M11 A3016 RMK A01 T10511107  RH  065%=      5-min Rain = 0
KTH1 111135Z 35013KT M05/M11 A3016 RMK A01 T10511108  RH  064%=      5-min Rain = 0
KTH1 111136Z 35010G15KT M05/M11 A3016 RMK A01 T10511106  RH  065%=      5-min Rain = 0
KTH1 111137Z 36009KT M05/M11 A3016 RMK A01 T10511106  RH  065%=      5-min Rain = 0
KTH1 111138Z 35011KT M05/M11 A3016 RMK A01 T10511107  RH  065%=      5-min Rain = 0
KTH1 111139Z 34011KT M05/M11 A3016 RMK A01 T10511107  RH  065%=      5-min Rain = 0
KTH1 111140Z 35012KT M05/M11 A3016 RMK A01 T10511107  RH  065%=      5-min Rain = 0
KTH1 111141Z 35011G17KT M05/M11 A3017 RMK A01 T10511107  RH  065%=      5-min Rain = 0
KTH1 111142Z 35013KT M05/M11 A3016 RMK A01 T10511107  RH  065%=      5-min Rain = 0
KTH1 111143Z 35014KT M05/M11 A3016 RMK A01 T10511108  RH  064%=      5-min Rain = 0
KTH1 111144Z 36011KT M05/M11 A3016 RMK A01 T10511108  RH  064%=      5-min Rain = 0
KTH1 111145Z 35012KT M05/M11 A3016 RMK A01 T10511107  RH  065%=      5-min Rain = 0
KTH1 111146Z 35011G17KT M05/M11 A3017 RMK A01 T10511107  RH  064%=      5-min Rain = 0
KTH1 111147Z 36012G17KT M05/M11 A3017 RMK A01 T10511108  RH  064%=      5-min Rain = 0
KTH1 111148Z 34012G17KT M05/M11 A3016 RMK A01 T10511107  RH  064%=      5-min Rain = 0
KTH1 111149Z 35013KT M05/M11 A3016 RMK A01 T10511108  RH  064%=      5-min Rain = 0
KTH1 111150Z 35013KT M05/M11 A3016 RMK A01 T10511108  RH  064%=      5-min Rain = 0
KTH1 111151Z 35013KT M05/M11 A3017 RMK A01 T10511108  RH  064%=      5-min Rain = 0
KTH1 111152Z 00012KT M05/M11 A3017 RMK A01 T10511109  RH  064%=      5-min Rain = 0
KTH1 111153Z 34007KT M05/M11 A3017 RMK A01 T10511108  RH  064%=      5-min Rain = 0
KTH1 111154Z 35010KT M05/M11 A3017 RMK A01 T10511107  RH  065%=      5-min Rain = 0
KTH1 111155Z 36007KT M05/M11 A3016 RMK A01 T10511107  RH  065%=      5-min Rain = 0
KTH1 111156Z 35010KT M05/M11 A3017 RMK A01 T10511108  RH  064%=      5-min Rain = 0
KTH1 111157Z 35009KT M05/M11 A3017 RMK A01 T10501106  RH  065%=      5-min Rain = 0
KTH1 111158Z 34009KT M05/M11 A3017 RMK A01 T10501106  RH  065%=      5-min Rain = 0
KTH1 111159Z 35008KT M05/M11 A3017 RMK A01 T10501107  RH  065%=      5-min Rain = 0
KTH1 111200Z 36007KT M05/M11 A3017 RMK A01 T10501106  RH  065%=      5-min Rain = 0
KTH1 111201Z 35005KT M05/M11 A3017 RMK A01 T10501106  RH  065%=      5-min Rain = 0
KTH1 111202Z 34006KT M05/M11 A3017 RMK A01 T10491105  RH  065%=      5-min Rain = 0
KTH1 111203Z 34007KT M05/M11 A3017 RMK A01 T10491105  RH  065%=      5-min Rain = 0
KTH1 111204Z 35007KT M05/M11 A3017 RMK A01 T10491105  RH  065%=      5-min Rain = 0
KTH1 111205Z 34008KT M05/M11 A3017 RMK A01 T10491106  RH  064%=      5-min Rain = 0
KTH1 111206Z 34006KT M05/M11 A3017 RMK A01 T10491105  RH  065%=      5-min Rain = 0
KTH1 111207Z 34008G13KT M05/M10 A3017 RMK A01 T10481103  RH  065%=      5-min Rain = 0
KTH1 111208Z 35011KT M05/M10 A3017 RMK A01 T10481104  RH  065%=      5-min Rain = 0
KTH1 111209Z 35010KT M05/M11 A3017 RMK A01 T10491106  RH  064%=      5-min Rain = 0
KTH1 111210Z 36010KT M05/M11 A3017 RMK A01 T10491108  RH  064%=      5-min Rain = 0
KTH1 111211Z 35010KT M05/M11 A3017 RMK A01 T10501108  RH  064%=      5-min Rain = 0
KTH1 111212Z 35009KT M05/M11 A3017 RMK A01 T10501108  RH  064%=      5-min Rain = 0
KTH1 111213Z 34009KT M05/M11 A3017 RMK A01 T10501107  RH  064%=      5-min Rain = 0
KTH1 111214Z 34008KT M05/M11 A3017 RMK A01 T10501107  RH  064%=      5-min Rain = 0
KTH1 111215Z 34007KT M05/M11 A3017 RMK A01 T10491106  RH  065%=      5-min Rain = 0
KTH1 111216Z 34009KT M05/M11 A3017 RMK A01 T10491105  RH  065%=      5-min Rain = 0
KTH1 111217Z 34007KT M05/M11 A3017 RMK A01 T10491105  RH  065%=      5-min Rain = 0
KTH1 111218Z 33008G15KT M05/M10 A3017 RMK A01 T10481104  RH  065%=      5-min Rain = 0
KTH1 111219Z 34010KT M05/M11 A3017 RMK A01 T10481105  RH  065%=      5-min Rain = 0
KTH1 111220Z 34007KT M05/M11 A3017 RMK A01 T10481105  RH  064%=      5-min Rain = 0
KTH1 111221Z 34010KT M05/M11 A3017 RMK A01 T10481105  RH  064%=      5-min Rain = 0
KTH1 111222Z 33010G15KT M05/M11 A3017 RMK A01 T10481106  RH  064%=      5-min Rain = 0
KTH1 111223Z 34009KT M05/M11 A3017 RMK A01 T10481107  RH  064%=      5-min Rain = 0
KTH1 111224Z 34008KT M05/M11 A3017 RMK A01 T10491107  RH  064%=      5-min Rain = 0
KTH1 111225Z 34008KT M05/M11 A3017 RMK A01 T10491107  RH  064%=      5-min Rain = 0
KTH1 111226Z 34010KT M05/M11 A3017 RMK A01 T10491107  RH  064%=      5-min Rain = 0
KTH1 111227Z 35009KT M05/M11 A3018 RMK A01 T10491108  RH  064%=      5-min Rain = 0
KTH1 111228Z 34009KT M05/M11 A3018 RMK A01 T10491106  RH  064%=      5-min Rain = 0
KTH1 111229Z 34007KT M05/M11 A3017 RMK A01 T10491106  RH  064%=      5-min Rain = 0
KTH1 111230Z 35008KT M05/M11 A3018 RMK A01 T10491105  RH  064%=      5-min Rain = 0
KTH1 111231Z 34006KT M05/M11 A3018 RMK A01 T10481105  RH  065%=      5-min Rain = 0
KTH1 111232Z 34009G16KT M05/M10 A3018 RMK A01 T10481104  RH  065%=      5-min Rain = 0
KTH1 111233Z 33010KT M05/M11 A3018 RMK A01 T10471105  RH  064%=      5-min Rain = 0
KTH1 111234Z 33009KT M05/M11 A3018 RMK A01 T10481105  RH  064%=      5-min Rain = 0
KTH1 111235Z 34010KT M05/M11 A3018 RMK A01 T10481105  RH  064%=      5-min Rain = 0
KTH1 111236Z 34010KT M05/M11 A3017 RMK A01 T10481106  RH  064%=      5-min Rain = 0
KTH1 111237Z 34008KT M05/M11 A3017 RMK A01 T10481106  RH  064%=      5-min Rain = 0
KTH1 111238Z 34007KT M05/M11 A3017 RMK A01 T10481105  RH  064%=      5-min Rain = 0
KTH1 111239Z 34007KT M05/M10 A3018 RMK A01 T10471104  RH  065%=      5-min Rain = 0
KTH1 111240Z 35011KT M05/M10 A3018 RMK A01 T10471104  RH  064%=      5-min Rain = 0
KTH1 111241Z 35010KT M05/M11 A3018 RMK A01 T10471106  RH  064%=      5-min Rain = 0
KTH1 111242Z 34010KT M05/M11 A3018 RMK A01 T10481107  RH  063%=      5-min Rain = 0
KTH1 111243Z 34007KT M05/M11 A3018 RMK A01 T10481107  RH  064%=      5-min Rain = 0
KTH1 111244Z 34009KT M05/M11 A3018 RMK A01 T10481105  RH  064%=      5-min Rain = 0
KTH1 111245Z 34008G13KT M05/M11 A3018 RMK A01 T10471105  RH  064%=      5-min Rain = 0
KTH1 111246Z 34007KT M05/M11 A3018 RMK A01 T10471105  RH  064%=      5-min Rain = 0
KTH1 111247Z 34006KT M05/M10 A3018 RMK A01 T10471104  RH  065%=      5-min Rain = 0
KTH1 111248Z 34007KT M05/M10 A3018 RMK A01 T10471103  RH  065%=      5-min Rain = 0
KTH1 111249Z 34009G14KT M05/M10 A3018 RMK A01 T10471104  RH  064%=      5-min Rain = 0
KTH1 111250Z 34006KT M05/M10 A3018 RMK A01 T10471104  RH  064%=      5-min Rain = 0
KTH1 111251Z 33008KT M05/M10 A3018 RMK A01 T10461104  RH  064%=      5-min Rain = 0
KTH1 111252Z 34010KT M05/M10 A3019 RMK A01 T10461104  RH  064%=      5-min Rain = 0
KTH1 111253Z 35007KT M05/M11 A3019 RMK A01 T10461105  RH  063%=      5-min Rain = 0
KTH1 111254Z 34008KT M05/M10 A3019 RMK A01 T10471104  RH  064%=      5-min Rain = 0
KTH1 111255Z 33009KT M05/M11 A3019 RMK A01 T10471105  RH  064%=      5-min Rain = 0
KTH1 111256Z 34008KT M05/M11 A3019 RMK A01 T10471105  RH  064%=      5-min Rain = 0
KTH1 111257Z 34009KT M05/M10 A3019 RMK A01 T10471104  RH  064%=      5-min Rain = 0
KTH1 111258Z 33007KT M05/M10 A3019 RMK A01 T10471104  RH  064%=      5-min Rain = 0
KTH1 111259Z 32009G14KT M05/M11 A3019 RMK A01 T10471105  RH  064%=      5-min Rain = 0
KTH1 111300Z 33009KT M05/M10 A3019 RMK A01 T10471103  RH  065%=      5-min Rain = 0
KTH1 111301Z 33009KT M05/M10 A3019 RMK A01 T10461102  RH  065%=      5-min Rain = 0
KTH1 111302Z 33013KT M05/M10 A3019 RMK A01 T10461103  RH  064%=      5-min Rain = 0
KTH1 111303Z 33010KT M05/M11 A3019 RMK A01 T10471106  RH  064%=      5-min Rain = 0
KTH1 111304Z 33010KT M05/M11 A3019 RMK A01 T10471105  RH  064%=      5-min Rain = 0
KTH1 111305Z 35009KT M05/M11 A3019 RMK A01 T10471105  RH  064%=      5-min Rain = 0
KTH1 111306Z 34009KT M05/M11 A3019 RMK A01 T10471105  RH  064%=      5-min Rain = 0
KTH1 111307Z 33011G16KT M05/M11 A3019 RMK A01 T10471105  RH  064%=      5-min Rain = 0
KTH1 111308Z 33010KT M05/M11 A302 RMK A01 T10471106  RH  064%=      5-min Rain = 0
KTH1 111309Z 33011KT M05/M11 A3019 RMK A01 T10471105  RH  064%=      5-min Rain = 0
KTH1 111310Z 32012KT M05/M11 A3019 RMK A01 T10481105  RH  064%=      5-min Rain = 0
KTH1 111311Z 33012G17KT M05/M11 A302 RMK A01 T10481105  RH  064%=      5-min Rain = 0
KTH1 111312Z 34011KT M05/M11 A302 RMK A01 T10481105  RH  064%=      5-min Rain = 0
KTH1 111313Z 33015KT M05/M11 A302 RMK A01 T10481106  RH  064%=      5-min Rain = 0
KTH1 111314Z 33013G18KT M05/M11 A302 RMK A01 T10481106  RH  064%=      5-min Rain = 0
KTH1 111315Z 33012KT M05/M11 A302 RMK A01 T10481106  RH  064%=      5-min Rain = 0
KTH1 111316Z 33012KT M05/M10 A302 RMK A01 T10481104  RH  065%=      5-min Rain = 0
KTH1 111317Z 33009KT M05/M11 A302 RMK A01 T10481105  RH  064%=      5-min Rain = 0
KTH1 111318Z 33010KT M05/M10 A302 RMK A01 T10481104  RH  065%=      5-min Rain = 0
KTH1 111319Z 33012KT M05/M10 A302 RMK A01 T10471104  RH  064%=      5-min Rain = 0
KTH1 111320Z 33011KT M05/M11 A302 RMK A01 T10471105  RH  064%=      5-min Rain = 0
KTH1 111321Z 33010KT M05/M10 A302 RMK A01 T10471104  RH  065%=      5-min Rain = 0
KTH1 111322Z 33010KT M05/M10 A302 RMK A01 T10471104  RH  064%=      5-min Rain = 0
KTH1 111323Z 33010KT M05/M10 A302 RMK A01 T10471103  RH  065%=      5-min Rain = 0
KTH1 111324Z 34009KT M05/M10 A302 RMK A01 T10471104  RH  065%=      5-min Rain = 0
KTH1 111325Z 34011KT M05/M11 A302 RMK A01 T10471105  RH  064%=      5-min Rain = 0
KTH1 111326Z 34011KT M05/M11 A302 RMK A01 T10471106  RH  064%=      5-min Rain = 0
KTH1 111327Z 33009KT M05/M11 A302 RMK A01 T10481106  RH  064%=      5-min Rain = 0
KTH1 111328Z 34009KT M05/M11 A302 RMK A01 T10481105  RH  064%=      5-min Rain = 0
KTH1 111329Z 33010KT M05/M10 A302 RMK A01 T10471104  RH  064%=      5-min Rain = 0
KTH1 111330Z 33011KT M05/M11 A302 RMK A01 T10481105  RH  064%=      5-min Rain = 0
KTH1 111331Z 33012KT M05/M11 A302 RMK A01 T10481105  RH  064%=      5-min Rain = 0
KTH1 111332Z 33011KT M05/M11 A302 RMK A01 T10471106  RH  064%=      5-min Rain = 0
KTH1 111333Z 33011KT M05/M11 A302 RMK A01 T10481105  RH  064%=      5-min Rain = 0
KTH1 111334Z 34012G18KT M05/M11 A302 RMK A01 T10481105  RH  064%=      5-min Rain = 0
KTH1 111335Z 34012G18KT M05/M11 A302 RMK A01 T10471106  RH  063%=      5-min Rain = 0
KTH1 111336Z 34013KT M05/M11 A302 RMK A01 T10481106  RH  063%=      5-min Rain = 0
KTH1 111337Z 34012G17KT M05/M11 A302 RMK A01 T10481106  RH  064%=      5-min Rain = 0
KTH1 111338Z 34011KT M05/M11 A302 RMK A01 T10481107  RH  064%=      5-min Rain = 0
KTH1 111339Z 34009KT M05/M11 A302 RMK A01 T10481107  RH  064%=      5-min Rain = 0
KTH1 111340Z 34010KT M05/M11 A3021 RMK A01 T10481106  RH  064%=      5-min Rain = 0
KTH1 111341Z 33010KT M05/M11 A3021 RMK A01 T10481106  RH  064%=      5-min Rain = 0
KTH1 111342Z 34009G14KT M05/M11 A3021 RMK A01 T10481106  RH  064%=      5-min Rain = 0
KTH1 111343Z 34012KT M05/M11 A3021 RMK A01 T10471105  RH  064%=      5-min Rain = 0
KTH1 111344Z 35011KT M05/M11 A3021 RMK A01 T10481106  RH  064%=      5-min Rain = 0
KTH1 111345Z 33011KT M05/M11 A3021 RMK A01 T10481107  RH  063%=      5-min Rain = 0
KTH1 111346Z 34011G16KT M05/M11 A3021 RMK A01 T10481106  RH  064%=      5-min Rain = 0
KTH1 111347Z 34009G14KT M05/M11 A3021 RMK A01 T10481106  RH  064%=      5-min Rain = 0
KTH1 111348Z 34010KT M05/M11 A3021 RMK A01 T10471105  RH  064%=      5-min Rain = 0
KTH1 111349Z 33008KT M05/M10 A3021 RMK A01 T10471104  RH  064%=      5-min Rain = 0
KTH1 111350Z 34010G15KT M05/M11 A3021 RMK A01 T10471105  RH  064%=      5-min Rain = 0
KTH1 111351Z 33013KT M05/M11 A3021 RMK A01 T10471105  RH  064%=      5-min Rain = 0
KTH1 111352Z 34010KT M05/M11 A3021 RMK A01 T10471105  RH  064%=      5-min Rain = 0
KTH1 111353Z 34012KT M05/M11 A3021 RMK A01 T10471105  RH  064%=      5-min Rain = 0
KTH1 111354Z 33012G17KT M05/M11 A3021 RMK A01 T10471106  RH  063%=      5-min Rain = 0
KTH1 111355Z 33012G18KT M05/M11 A3021 RMK A01 T10471106  RH  063%=      5-min Rain = 0
KTH1 111356Z 33011G16KT M05/M11 A3021 RMK A01 T10471106  RH  064%=      5-min Rain = 0
KTH1 111357Z 33013KT M05/M11 A3021 RMK A01 T10471105  RH  064%=      5-min Rain = 0
KTH1 111358Z 33011KT M05/M11 A3021 RMK A01 T10471105  RH  064%=      5-min Rain = 0
KTH1 111359Z 33010KT M05/M10 A3021 RMK A01 T10461103  RH  064%=      5-min Rain = 0
KTH1 111400Z 33013KT M05/M10 A3021 RMK A01 T10461104  RH  064%=      5-min Rain = 0
KTH1 111401Z 33014KT M05/M11 A3022 RMK A01 T10461105  RH  063%=      5-min Rain = 0
KTH1 111402Z 33011KT M05/M10 A3022 RMK A01 T10461104  RH  064%=      5-min Rain = 0
KTH1 111403Z 33010G15KT M05/M10 A3022 RMK A01 T10461103  RH  064%=      5-min Rain = 0
KTH1 111404Z 32013KT M05/M10 A3022 RMK A01 T10461104  RH  064%=      5-min Rain = 0
KTH1 111405Z 33015KT M05/M11 A3022 RMK A01 T10461105  RH  063%=      5-min Rain = 0
KTH1 111406Z 33012G18KT M05/M11 A3022 RMK A01 T10471106  RH  063%=      5-min Rain = 0
KTH1 111407Z 34011G17KT M05/M11 A3022 RMK A01 T10471106  RH  063%=      5-min Rain = 0
KTH1 111408Z 35011KT M05/M11 A3022 RMK A01 T10471105  RH  064%=      5-min Rain = 0
KTH1 111409Z 33010KT M05/M11 A3022 RMK A01 T10461105  RH  064%=      5-min Rain = 0
KTH1 111410Z 33014KT M05/M10 A3022 RMK A01 T10461103  RH  064%=      5-min Rain = 0
KTH1 111411Z 34013KT M05/M10 A3022 RMK A01 T10451104  RH  064%=      5-min Rain = 0
KTH1 111412Z 34012G17KT M05/M11 A3022 RMK A01 T10461105  RH  063%=      5-min Rain = 0
KTH1 111413Z 33011KT M05/M10 A3022 RMK A01 T10461104  RH  064%=      5-min Rain = 0
KTH1 111414Z 33009KT M05/M10 A3022 RMK A01 T10461104  RH  064%=      5-min Rain = 0
KTH1 111415Z 34013G18KT M05/M10 A3022 RMK A01 T10451103  RH  064%=      5-min Rain = 0
KTH1 111416Z 34012G17KT M05/M11 A3022 RMK A01 T10451105  RH  063%=      5-min Rain = 0
KTH1 111417Z 33009KT M05/M11 A3022 RMK A01 T10451105  RH  063%=      5-min Rain = 0
KTH1 111418Z 33009G15KT M05/M10 A3022 RMK A01 T10451103  RH  064%=      5-min Rain = 0
KTH1 111419Z 33013KT M04/M10 A3022 RMK A01 T10441103  RH  064%=      5-min Rain = 0
KTH1 111420Z 33012KT M04/M10 A3022 RMK A01 T10441104  RH  063%=      5-min Rain = 0
KTH1 111421Z 33014KT M04/M10 A3022 RMK A01 T10441104  RH  063%=      5-min Rain = 0
KTH1 111422Z 33014KT M05/M11 A3022 RMK A01 T10451105  RH  063%=      5-min Rain = 0
KTH1 111423Z 33015KT M05/M10 A3023 RMK A01 T10451104  RH  063%=      5-min Rain = 0
KTH1 111424Z 34013KT M05/M10 A3023 RMK A01 T10451104  RH  063%=      5-min Rain = 0
KTH1 111425Z 34012KT M05/M10 A3023 RMK A01 T10451104  RH  063%=      5-min Rain = 0
KTH1 111426Z 34012KT M05/M11 A3023 RMK A01 T10451105  RH  063%=      5-min Rain = 0
KTH1 111427Z 34013G18KT M05/M11 A3023 RMK A01 T10451105  RH  063%=      5-min Rain = 0
KTH1 111428Z 33011G16KT M05/M11 A3023 RMK A01 T10451105  RH  063%=      5-min Rain = 0
KTH1 111429Z 34012G18KT M05/M11 A3023 RMK A01 T10451105  RH  063%=      5-min Rain = 0
KTH1 111430Z 34013KT M04/M10 A3023 RMK A01 T10441104  RH  063%=      5-min Rain = 0
KTH1 111431Z 34012G19KT M04/M11 A3023 RMK A01 T10441105  RH  062%=      5-min Rain = 0
KTH1 111432Z 35016G21KT M04/M11 A3023 RMK A01 T10441105  RH  062%=      5-min Rain = 0
KTH1 111433Z 34013G18KT M04/M11 A3023 RMK A01 T10441106  RH  062%=      5-min Rain = 0
KTH1 111434Z 35013G18KT M04/M11 A3023 RMK A01 T10441105  RH  062%=      5-min Rain = 0
KTH1 111435Z 34010KT M04/M11 A3023 RMK A01 T10431106  RH  062%=      5-min Rain = 0
KTH1 111436Z 34011KT M04/M10 A3023 RMK A01 T10431104  RH  062%=      5-min Rain = 0
KTH1 111437Z 34009KT M04/M10 A3023 RMK A01 T10421104  RH  062%=      5-min Rain = 0
KTH1 111438Z 32012KT M04/M10 A3023 RMK A01 T10411103  RH  062%=      5-min Rain = 0
KTH1 111439Z 33014KT M04/M10 A3023 RMK A01 T10411102  RH  062%=      5-min Rain = 0
KTH1 111440Z 33013KT M04/M10 A3024 RMK A01 T10411104  RH  062%=      5-min Rain = 0
KTH1 111441Z 33013KT M04/M10 A3024 RMK A01 T10411104  RH  062%=      5-min Rain = 0
KTH1 111442Z 33014KT M04/M10 A3023 RMK A01 T10411103  RH  062%=      5-min Rain = 0
KTH1 111443Z 33013KT M04/M10 A3023 RMK A01 T10401104  RH  061%=      5-min Rain = 0
KTH1 111444Z 33014KT M04/M10 A3024 RMK A01 T10401103  RH  062%=      5-min Rain = 0
KTH1 111445Z 33017KT M04/M10 A3023 RMK A01 T10401104  RH  061%=      5-min Rain = 0
KTH1 111446Z 33016KT M04/M11 A3024 RMK A01 T10411105  RH  061%=      5-min Rain = 0
KTH1 111447Z 33016G21KT M04/M11 A3024 RMK A01 T10421106  RH  061%=      5-min Rain = 0
KTH1 111448Z 32014G19KT M04/M11 A3023 RMK A01 T10431106  RH  061%=      5-min Rain = 0
KTH1 111449Z 33015KT M04/M11 A3024 RMK A01 T10431105  RH  062%=      5-min Rain = 0
KTH1 111450Z 33012KT M04/M11 A3024 RMK A01 T10421105  RH  062%=      5-min Rain = 0
KTH1 111451Z 33012KT M04/M10 A3024 RMK A01 T10421104  RH  062%=      5-min Rain = 0
KTH1 111452Z 33011G16KT M04/M10 A3024 RMK A01 T10411102  RH  063%=      5-min Rain = 0
KTH1 111453Z 35009G14KT M04/M10 A3024 RMK A01 T10411103  RH  062%=      5-min Rain = 0
KTH1 111454Z 33012KT M04/M10 A3024 RMK A01 T10401104  RH  061%=      5-min Rain = 0
KTH1 111455Z 34013KT M04/M11 A3024 RMK A01 T10401105  RH  061%=      5-min Rain = 0
KTH1 111456Z 33013KT M04/M11 A3024 RMK A01 T10411106  RH  060%=      5-min Rain = 0
KTH1 111457Z 32012KT M04/M11 A3024 RMK A01 T10411106  RH  061%=      5-min Rain = 0
KTH1 111458Z 33014KT M04/M11 A3024 RMK A01 T10421105  RH  061%=      5-min Rain = 0
KTH1 111459Z 33014KT M04/M11 A3024 RMK A01 T10421105  RH  061%=      5-min Rain = 0
KTH1 111500Z 33013KT M04/M10 A3024 RMK A01 T10411104  RH  061%=      5-min Rain = 0
KTH1 111501Z 33014KT M04/M11 A3024 RMK A01 T10421106  RH  061%=      5-min Rain = 0
KTH1 111502Z 33013KT M04/M11 A3024 RMK A01 T10411105  RH  061%=      5-min Rain = 0
KTH1 111503Z 34011KT M04/M11 A3024 RMK A01 T10421106  RH  061%=      5-min Rain = 0
KTH1 111504Z 32011KT M04/M11 A3025 RMK A01 T10411105  RH  061%=      5-min Rain = 0
KTH1 111505Z 33012KT M04/M10 A3025 RMK A01 T10411103  RH  062%=      5-min Rain = 0
KTH1 111506Z 32013KT M04/M10 A3024 RMK A01 T10401104  RH  061%=      5-min Rain = 0
KTH1 111507Z 32015KT M04/M10 A3024 RMK A01 T10401104  RH  061%=      5-min Rain = 0
KTH1 111508Z 32013KT M04/M11 A3025 RMK A01 T10411105  RH  061%=      5-min Rain = 0
KTH1 111509Z 32012KT M04/M10 A3025 RMK A01 T10411104  RH  062%=      5-min Rain = 0
KTH1 111510Z 34012G18KT M04/M10 A3025 RMK A01 T10411103  RH  062%=      5-min Rain = 0
KTH1 111511Z 34014KT M04/M10 A3025 RMK A01 T10391104  RH  061%=      5-min Rain = 0
KTH1 111512Z 34013KT M04/M11 A3025 RMK A01 T10401106  RH  060%=      5-min Rain = 0
KTH1 111513Z 34014KT M04/M11 A3025 RMK A01 T10411106  RH  060%=      5-min Rain = 0
KTH1 111514Z 33016G21KT M04/M11 A3025 RMK A01 T10411107  RH  060%=      5-min Rain = 0
KTH1 111515Z 33012KT M04/M11 A3025 RMK A01 T10421107  RH  060%=      5-min Rain = 0
KTH1 111516Z 33015KT M04/M11 A3025 RMK A01 T10421107  RH  061%=      5-min Rain = 0
KTH1 111517Z 33014KT M04/M11 A3024 RMK A01 T10421107  RH  061%=      5-min Rain = 0
KTH1 111518Z 32016KT M04/M11 A3024 RMK A01 T10421106  RH  061%=      5-min Rain = 0
KTH1 111519Z 34014G21KT M04/M11 A3024 RMK A01 T10421107  RH  060%=      5-min Rain = 0
KTH1 111520Z 34015KT M04/M11 A3024 RMK A01 T10421107  RH  061%=      5-min Rain = 0
KTH1 111521Z 35014G19KT M04/M11 A3024 RMK A01 T10411108  RH  060%=      5-min Rain = 0
KTH1 111522Z 34014KT M04/M11 A3024 RMK A01 T10421109  RH  060%=      5-min Rain = 0
KTH1 111523Z 34012KT M04/M11 A3024 RMK A01 T10421108  RH  060%=      5-min Rain = 0
KTH1 111524Z 35009G14KT M04/M11 A3024 RMK A01 T10411107  RH  060%=      5-min Rain = 0
KTH1 111525Z 35013G19KT M04/M11 A3025 RMK A01 T10391106  RH  060%=      5-min Rain = 0
KTH1 111526Z 34010G15KT M04/M11 A3025 RMK A01 T10381105  RH  060%=      5-min Rain = 0
KTH1 111527Z 34010KT M04/M11 A3025 RMK A01 T10371105  RH  059%=      5-min Rain = 0
KTH1 111528Z 34011G17KT M04/M11 A3025 RMK A01 T10371105  RH  059%=      5-min Rain = 0
KTH1 111529Z 33011KT M04/M11 A3025 RMK A01 T10361105  RH  059%=      5-min Rain = 0
KTH1 111530Z 33012KT M04/M11 A3025 RMK A01 T10361106  RH  058%=      5-min Rain = 0
KTH1 111531Z 33013KT M04/M10 A3025 RMK A01 T10361104  RH  059%=      5-min Rain = 0
KTH1 111532Z 34015KT M04/M11 A3025 RMK A01 T10361106  RH  058%=      5-min Rain = 0
KTH1 111533Z 33008KT M04/M11 A3025 RMK A01 T10361108  RH  058%=      5-min Rain = 0
KTH1 111534Z 32011KT M04/M10 A3025 RMK A01 T10351102  RH  060%=      5-min Rain = 0
KTH1 111535Z 33013KT M03/M10 A3025 RMK A01 T10331101  RH  059%=      5-min Rain = 0
KTH1 111536Z 32014KT M03/M11 A3025 RMK A01 T10331105  RH  057%=      5-min Rain = 0
KTH1 111537Z 33014G21KT M03/M10 A3025 RMK A01 T10331104  RH  058%=      5-min Rain = 0
KTH1 111538Z 33011G17KT M03/M10 A3025 RMK A01 T10321103  RH  058%=      5-min Rain = 0
KTH1 111539Z 33013KT M03/M11 A3025 RMK A01 T10311105  RH  057%=      5-min Rain = 0
KTH1 111540Z 32013G20KT M03/M11 A3025 RMK A01 T10321106  RH  057%=      5-min Rain = 0
KTH1 111541Z 32015KT M03/M10 A3025 RMK A01 T10331104  RH  058%=      5-min Rain = 0
KTH1 111542Z 34015G20KT M03/M11 A3025 RMK A01 T10341105  RH  058%=      5-min Rain = 0
KTH1 111543Z 32014G19KT M04/M11 A3025 RMK A01 T10351107  RH  057%=      5-min Rain = 0
KTH1 111544Z 33015KT M04/M11 A3025 RMK A01 T10361107  RH  058%=      5-min Rain = 0
KTH1 111545Z 33014KT M04/M11 A3025 RMK A01 T10371109  RH  057%=      5-min Rain = 0
KTH1 111546Z 32012KT M04/M11 A3025 RMK A01 T10381109  RH  058%=      5-min Rain = 0
KTH1 111547Z 33012KT M04/M11 A3025 RMK A01 T10381106  RH  059%=      5-min Rain = 0
KTH1 111548Z 33016KT M04/M11 A3025 RMK A01 T10371106  RH  059%=      5-min Rain = 0
KTH1 111549Z 34016KT M04/M11 A3025 RMK A01 T10371108  RH  058%=      5-min Rain = 0
KTH1 111550Z 35013G18KT M04/M11 A3025 RMK A01 T10381110  RH  057%=      5-min Rain = 0
KTH1 111551Z 34013G19KT M04/M11 A3026 RMK A01 T10381109  RH  058%=      5-min Rain = 0
KTH1 111552Z 34016KT M04/M11 A3026 RMK A01 T10381110  RH  058%=      5-min Rain = 0
KTH1 111553Z 34014G19KT M04/M11 A3026 RMK A01 T10391111  RH  057%=      5-min Rain = 0
KTH1 111554Z 34012KT M04/M11 A3026 RMK A01 T10401111  RH  058%=      5-min Rain = 0
KTH1 111555Z 34013KT M04/M11 A3026 RMK A01 T10391110  RH  058%=      5-min Rain = 0
KTH1 111556Z 34012KT M04/M11 A3026 RMK A01 T10391110  RH  058%=      5-min Rain = 0
KTH1 111557Z 34015KT M04/M11 A3026 RMK A01 T10391111  RH  058%=      5-min Rain = 0
KTH1 111558Z 35015KT M04/M11 A3026 RMK A01 T10401111  RH  058%=      5-min Rain = 0
KTH1 111559Z 34013G18KT M04/M11 A3026 RMK A01 T10401111  RH  058%=      5-min Rain = 0
KTH1 111600Z 33012KT M04/M11 A3026 RMK A01 T10391109  RH  058%=      5-min Rain = 0
KTH1 111601Z 33014KT M04/M11 A3026 RMK A01 T10381109  RH  058%=      5-min Rain = 0
KTH1 111602Z 33014KT M04/M11 A3026 RMK A01 T10381109  RH  058%=      5-min Rain = 0
KTH1 111603Z 32016KT M04/M11 A3026 RMK A01 T10381108  RH  059%=      5-min Rain = 0
KTH1 111604Z 33015KT M04/M11 A3026 RMK A01 T10381107  RH  059%=      5-min Rain = 0
KTH1 111605Z 33014KT M04/M11 A3027 RMK A01 T10391108  RH  059%=      5-min Rain = 0
KTH1 111606Z 33013G18KT M04/M11 A3027 RMK A01 T10381107  RH  059%=      5-min Rain = 0
KTH1 111607Z 33012KT M04/M11 A3027 RMK A01 T10381108  RH  058%=      5-min Rain = 0
KTH1 111608Z 34013KT M04/M11 A3027 RMK A01 T10371108  RH  058%=      5-min Rain = 0
KTH1 111609Z 34012G19KT M04/M11 A3027 RMK A01 T10361109  RH  057%=      5-min Rain = 0
KTH1 111610Z 34014KT M04/M11 A3027 RMK A01 T10361108  RH  057%=      5-min Rain = 0
KTH1 111611Z 34014G19KT M04/M11 A3027 RMK A01 T10351109  RH  057%=      5-min Rain = 0
KTH1 111612Z 34011KT M04/M11 A3027 RMK A01 T10361111  RH  056%=      5-min Rain = 0
KTH1 111613Z 35013KT M04/M11 A3027 RMK A01 T10361110  RH  056%=      5-min Rain = 0
KTH1 111614Z 34012KT M04/M11 A3027 RMK A01 T10371111  RH  057%=      5-min Rain = 0
KTH1 111615Z 33012G17KT M04/M11 A3027 RMK A01 T10361109  RH  057%=      5-min Rain = 0
KTH1 111616Z 33013KT M04/M11 A3027 RMK A01 T10351108  RH  057%=      5-min Rain = 0
KTH1 111617Z 32012KT M04/M11 A3027 RMK A01 T10351106  RH  058%=      5-min Rain = 0
KTH1 111618Z 33011KT M03/M10 A3027 RMK A01 T10331100  RH  060%=      5-min Rain = 0
KTH1 111619Z 34010G16KT M03/M10 A3027 RMK A01 T10321103  RH  058%=      5-min Rain = 0
KTH1 111620Z 34014KT M03/M11 A3027 RMK A01 T10321107  RH  056%=      5-min Rain = 0
KTH1 111621Z 33011KT M03/M11 A3027 RMK A01 T10331109  RH  056%=      5-min Rain = 0
KTH1 111622Z 34010KT M03/M11 A3027 RMK A01 T10341108  RH  057%=      5-min Rain = 0
KTH1 111623Z 34011G16KT M03/M11 A3027 RMK A01 T10341108  RH  057%=      5-min Rain = 0
KTH1 111624Z 33012KT M04/M11 A3027 RMK A01 T10351109  RH  057%=      5-min Rain = 0
KTH1 111625Z 35011KT M04/M11 A3027 RMK A01 T10361110  RH  056%=      5-min Rain = 0
KTH1 111626Z 35011G16KT M04/M11 A3027 RMK A01 T10371111  RH  057%=      5-min Rain = 0
KTH1 111627Z 35010G15KT M04/M11 A3027 RMK A01 T10361109  RH  057%=      5-min Rain = 0
KTH1 111628Z 35013KT M04/M11 A3027 RMK A01 T10351107  RH  057%=      5-min Rain = 0
KTH1 111629Z 34011G19KT M03/M11 A3027 RMK A01 T10341107  RH  057%=      5-min Rain = 0
KTH1 111630Z 34012KT M03/M11 A3027 RMK A01 T10341107  RH  057%=      5-min Rain = 0
KTH1 111631Z 33010KT M03/M11 A3027 RMK A01 T10341108  RH  057%=      5-min Rain = 0
KTH1 111632Z 33011G18KT M03/M11 A3027 RMK A01 T10341107  RH  057%=      5-min Rain = 0
KTH1 111633Z 34011G16KT M03/M11 A3027 RMK A01 T10331106  RH  057%=      5-min Rain = 0
KTH1 111634Z 35011KT M03/M11 A3027 RMK A01 T10321106  RH  057%=      5-min Rain = 0
KTH1 111635Z 34009KT M03/M11 A3027 RMK A01 T10301105  RH  056%=      5-min Rain = 0
KTH1 111636Z 35010KT M03/M11 A3027 RMK A01 T10291105  RH  056%=      5-min Rain = 0
KTH1 111637Z 34013KT M03/M11 A3027 RMK A01 T10291106  RH  055%=      5-min Rain = 0
KTH1 111638Z 35011KT M03/M11 A3027 RMK A01 T10291108  RH  055%=      5-min Rain = 0
KTH1 111639Z 35011KT M03/M11 A3027 RMK A01 T10301108  RH  055%=      5-min Rain = 0
KTH1 111640Z 34012KT M03/M11 A3027 RMK A01 T10291107  RH  055%=      5-min Rain = 0
KTH1 111641Z 33013KT M03/M11 A3027 RMK A01 T10291107  RH  055%=      5-min Rain = 0
KTH1 111642Z 33013KT M03/M11 A3027 RMK A01 T10301107  RH  055%=      5-min Rain = 0
KTH1 111643Z 34010KT M03/M11 A3027 RMK A01 T10311108  RH  055%=      5-min Rain = 0
KTH1 111644Z 34011KT M03/M11 A3027 RMK A01 T10291106  RH  055%=      5-min Rain = 0
KTH1 111645Z 33012G17KT M03/M11 A3027 RMK A01 T10281105  RH  055%=      5-min Rain = 0
KTH1 111646Z 33015KT M03/M11 A3027 RMK A01 T10261105  RH  055%=      5-min Rain = 0
KTH1 111647Z 34013KT M03/M11 A3027 RMK A01 T10261106  RH  054%=      5-min Rain = 0
KTH1 111648Z 34010KT M03/M11 A3027 RMK A01 T10261106  RH  054%=      5-min Rain = 0
KTH1 111649Z 35011G17KT M02/M10 A3027 RMK A01 T10221102  RH  054%=      5-min Rain = 0
KTH1 111650Z 34010KT M02/M10 A3027 RMK A01 T10201101  RH  054%=      5-min Rain = 0
KTH1 111651Z 34010KT M02/M10 A3027 RMK A01 T10201102  RH  053%=      5-min Rain = 0
KTH1 111652Z 34011KT M02/M10 A3028 RMK A01 T10201103  RH  053%=      5-min Rain = 0
KTH1 111653Z 33010KT M02/M10 A3027 RMK A01 T10191102  RH  053%=      5-min Rain = 0
KTH1 111654Z 33012KT M02/M10 A3027 RMK A01 T10171101  RH  053%=      5-min Rain = 0
KTH1 111655Z 32014KT M02/M10 A3027 RMK A01 T10161100  RH  053%=      5-min Rain = 0
KTH1 111656Z 32012KT M02/M10 A3027 RMK A01 T10181102  RH  053%=      5-min Rain = 0
KTH1 111657Z 33012G17KT M02/M10 A3028 RMK A01 T10181102  RH  052%=      5-min Rain = 0
KTH1 111658Z 35010KT M02/M10 A3028 RMK A01 T10171102  RH  052%=      5-min Rain = 0
KTH1 111659Z 35010KT M02/M10 A3028 RMK A01 T10191104  RH  052%=      5-min Rain = 0
KTH1 111700Z 36010KT M02/M11 A3027 RMK A01 T10201107  RH  052%=      5-min Rain = 0
KTH1 111701Z 34010KT M02/M11 A3027 RMK A01 T10221108  RH  052%=      5-min Rain = 0
KTH1 111702Z 33008KT M02/M11 A3027 RMK A01 T10221106  RH  053%=      5-min Rain = 0
KTH1 111703Z 34010KT M02/M10 A3027 RMK A01 T10221103  RH  054%=      5-min Rain = 0
KTH1 111704Z 32013G18KT M02/M10 A3027 RMK A01 T10211103  RH  053%=      5-min Rain = 0
KTH1 111705Z 33014KT M02/M11 A3027 RMK A01 T10231105  RH  053%=      5-min Rain = 0
KTH1 111706Z 32014KT M02/M11 A3027 RMK A01 T10241105  RH  054%=      5-min Rain = 0
KTH1 111707Z 32011KT M03/M10 A3028 RMK A01 T10251103  RH  055%=      5-min Rain = 0
KTH1 111708Z 33011KT M02/M10 A3028 RMK A01 T10241100  RH  056%=      5-min Rain = 0
KTH1 111709Z 33014KT M02/M10 A3028 RMK A01 T10241103  RH  055%=      5-min Rain = 0
KTH1 111710Z 33011G17KT M03/M11 A3028 RMK A01 T10251105  RH  054%=      5-min Rain = 0
KTH1 111711Z 34009KT M03/M11 A3028 RMK A01 T10251105  RH  055%=      5-min Rain = 0
KTH1 111712Z 34009G14KT M03/M10 A3028 RMK A01 T10251104  RH  054%=      5-min Rain = 0
KTH1 111713Z 34011KT M02/M11 A3028 RMK A01 T10241105  RH  054%=      5-min Rain = 0
KTH1 111714Z 34013KT M02/M11 A3028 RMK A01 T10241106  RH  053%=      5-min Rain = 0
KTH1 111715Z 34010KT M03/M11 A3028 RMK A01 T10251107  RH  053%=      5-min Rain = 0
KTH1 111716Z 35010KT M03/M11 A3028 RMK A01 T10261107  RH  054%=      5-min Rain = 0
KTH1 111717Z 35013KT M03/M11 A3028 RMK A01 T10251106  RH  054%=      5-min Rain = 0
KTH1 111718Z 34008KT M03/M11 A3028 RMK A01 T10251106  RH  053%=      5-min Rain = 0
KTH1 111719Z 33010G15KT M02/M10 A3028 RMK A01 T10241103  RH  054%=      5-min Rain = 0
KTH1 111720Z 32013KT M02/M10 A3028 RMK A01 T10221104  RH  054%=      5-min Rain = 0
KTH1 111721Z 32011KT M02/M10 A3028 RMK A01 T10221104  RH  053%=      5-min Rain = 0
KTH1 111722Z 33012KT M02/M10 A3028 RMK A01 T10221103  RH  054%=      5-min Rain = 0
KTH1 111723Z 33012KT M02/M11 A3028 RMK A01 T10221105  RH  053%=      5-min Rain = 0
KTH1 111724Z 33013KT M02/M11 A3028 RMK A01 T10211106  RH  052%=      5-min Rain = 0
KTH1 111725Z 34011KT M02/M10 A3028 RMK A01 T10211104  RH  053%=      5-min Rain = 0
KTH1 111726Z 33013KT M02/M10 A3028 RMK A01 T10191104  RH  052%=      5-min Rain = 0
KTH1 111727Z 33010KT M02/M10 A3028 RMK A01 T10181103  RH  052%=      5-min Rain = 0
KTH1 111728Z 33008KT M02/M11 A3028 RMK A01 T10181105  RH  052%=      5-min Rain = 0
KTH1 111729Z 35009KT M02/M11 A3028 RMK A01 T10181105  RH  051%=      5-min Rain = 0
KTH1 111730Z 33009G16KT M02/M11 A3028 RMK A01 T10181107  RH  051%=      5-min Rain = 0
KTH1 111731Z 35011G16KT M02/M10 A3028 RMK A01 T10161103  RH  051%=      5-min Rain = 0
KTH1 111732Z 34011G16KT M02/M10 A3028 RMK A01 T10151104  RH  051%=      5-min Rain = 0
KTH1 111733Z 34009KT M01/M10 A3028 RMK A01 T10141103  RH  051%=      5-min Rain = 0
KTH1 111734Z 34008KT M01/M10 A3028 RMK A01 T10141103  RH  051%=      5-min Rain = 0
KTH1 111735Z 36007KT M01/M11 A3028 RMK A01 T10141105  RH  050%=      5-min Rain = 0
KTH1 111736Z 34007KT M01/M11 A3028 RMK A01 T10141106  RH  049%=      5-min Rain = 0
KTH1 111737Z 34005KT M01/M10 A3028 RMK A01 T10121103  RH  050%=      5-min Rain = 0
KTH1 111738Z 34008G13KT M01/M10 A3028 RMK A01 T10111100  RH  051%=      5-min Rain = 0
KTH1 111739Z 34010KT M01/M10 A3028 RMK A01 T10091103  RH  049%=      5-min Rain = 0
KTH1 111740Z 35011KT M01/M11 A3028 RMK A01 T10101106  RH  048%=      5-min Rain = 0
KTH1 111741Z 34008KT M01/M11 A3028 RMK A01 T10121109  RH  048%=      5-min Rain = 0
KTH1 111742Z 36009KT M01/M11 A3028 RMK A01 T10131107  RH  049%=      5-min Rain = 0
KTH1 111743Z 35009KT M01/M11 A3028 RMK A01 T10101105  RH  048%=      5-min Rain = 0
KTH1 111744Z 33007KT M01/M11 A3028 RMK A01 T10101106  RH  048%=      5-min Rain = 0
KTH1 111745Z 32010KT M01/M10 A3028 RMK A01 T10081101  RH  049%=      5-min Rain = 0
KTH1 111746Z 32010KT M01/M10 A3028 RMK A01 T10081101  RH  049%=      5-min Rain = 0
KTH1 111747Z 33010KT M01/M10 A3028 RMK A01 T10101104  RH  049%=      5-min Rain = 0
KTH1 111748Z 32011KT M01/M10 A3028 RMK A01 T10101100  RH  050%=      5-min Rain = 0
KTH1 111749Z 32010KT M01/M09 A3028 RMK A01 T10061092  RH  052%=      5-min Rain = 0
KTH1 111750Z 32008KT M00/M10 A3027 RMK A01 T10041095  RH  050%=      5-min Rain = 0
KTH1 111751Z 33007KT M00/M10 A3027 RMK A01 T10031099  RH  049%=      5-min Rain = 0
KTH1 111752Z 34009G16KT M00/M10 A3027 RMK A01 T10031101  RH  048%=      5-min Rain = 0
KTH1 111753Z 35010KT M00/M10 A3027 RMK A01 T10021104  RH  046%=      5-min Rain = 0
KTH1 111754Z 34006KT M01/M11 A3027 RMK A01 T10051108  RH  046%=      5-min Rain = 0
KTH1 111755Z 32011KT M00/M10 A3027 RMK A01 T10041103  RH  047%=      5-min Rain = 0
KTH1 111756Z 33011KT M00/M10 A3027 RMK A01 T10041104  RH  047%=      5-min Rain = 0
KTH1 111757Z 33008KT M01/M11 A3027 RMK A01 T10071107  RH  047%=      5-min Rain = 0
KTH1 111758Z 33007KT M01/M11 A3027 RMK A01 T10071107  RH  047%=      5-min Rain = 0
KTH1 111759Z 36005KT M01/M11 A3027 RMK A01 T10061105  RH  047%=      5-min Rain = 0
KTH1 111800Z 33004KT M01/M11 A3027 RMK A01 T10051106  RH  046%=      5-min Rain = 0
KTH1 111801Z 34005G10KT M00/M11 A3027 RMK A01 T10041105  RH  046%=      5-min Rain = 0
KTH1 111802Z 33010KT M00/M11 A3027 RMK A01 T10041106  RH  046%=      5-min Rain = 0
KTH1 111803Z 34010KT M00/M11 A3027 RMK A01 T10031105  RH  046%=      5-min Rain = 0
KTH1 111804Z 00007KT M00/M11 A3027 RMK A01 T10021106  RH  045%=      5-min Rain = 0
KTH1 111805Z 36010KT M00/M11 A3027 RMK A01 T10041109  RH  045%=      5-min Rain = 0
KTH1 111806Z 35011KT M01/M11 A3027 RMK A01 T10051112  RH  044%=      5-min Rain = 0
KTH1 111807Z 34007KT M01/M11 A3027 RMK A01 T10051109  RH  045%=      5-min Rain = 0
KTH1 111808Z 34007KT M00/M11 A3027 RMK A01 T10011105  RH  045%=      5-min Rain = 0
KTH1 111809Z 01008KT M00/M11 A3027 RMK A01 T10011107  RH  045%=      5-min Rain = 0
KTH1 111810Z 36008KT 00/11 A3027 RMK A01 T00000-108  RH  044%=      5-min Rain = 0
KTH1 111811Z 34008KT 00/M11 A3027 RMK A01 T00011107  RH  044%=      5-min Rain = 0
KTH1 111812Z 33006KT 00/M11 A3027 RMK A01 T00021107  RH  044%=      5-min Rain = 0
KTH1 111813Z 34005KT 00/M11 A3027 RMK A01 T00021106  RH  044%=      5-min Rain = 0
KTH1 111814Z 35006KT 00/M11 A3027 RMK A01 T00021107  RH  044%=      5-min Rain = 0
KTH1 111815Z 36008KT 00/M11 A3027 RMK A01 T00011109  RH  043%=      5-min Rain = 0
KTH1 111816Z 00009KT 00/M11 A3027 RMK A01 T00011110  RH  043%=      5-min Rain = 0
KTH1 111817Z 36010KT 00/11 A3027 RMK A01 T00000-110  RH  043%=      5-min Rain = 0
KTH1 111818Z 35008KT 00/11 A3026 RMK A01 T00000-111  RH  043%=      5-min Rain = 0
KTH1 111819Z 34009KT M00/M11 A3026 RMK A01 T10021111  RH  044%=      5-min Rain = 0
KTH1 111820Z 34007KT M00/M11 A3027 RMK A01 T10011109  RH  044%=      5-min Rain = 0
KTH1 111821Z 35008KT 00/11 A3027 RMK A01 T00000-108  RH  044%=      5-min Rain = 0
KTH1 111822Z 35010KT 00/M11 A3027 RMK A01 T00011108  RH  044%=      5-min Rain = 0
KTH1 111823Z 35011KT 00/M11 A3026 RMK A01 T00021108  RH  043%=      5-min Rain = 0
KTH1 111824Z 35009KT 00/M11 A3026 RMK A01 T00021108  RH  044%=      5-min Rain = 0
KTH1 111825Z 32009KT 00/M10 A3026 RMK A01 T00031103  RH  045%=      5-min Rain = 0
KTH1 111826Z 32013KT 00/M10 A3026 RMK A01 T00041103  RH  045%=      5-min Rain = 0
KTH1 111827Z 32011KT 00/M11 A3026 RMK A01 T00031105  RH  044%=      5-min Rain = 0
KTH1 111828Z 32010KT 00/M11 A3026 RMK A01 T00011106  RH  044%=      5-min Rain = 0
KTH1 111829Z 32008KT 00/M10 A3026 RMK A01 T00011103  RH  045%=      5-min Rain = 0
KTH1 111830Z 34007KT 00/M10 A3026 RMK A01 T00031101  RH  046%=      5-min Rain = 0
KTH1 111831Z 33007G12KT 00/M11 A3026 RMK A01 T00041105  RH  044%=      5-min Rain = 0
KTH1 111832Z 34009KT 00/M11 A3026 RMK A01 T00041106  RH  043%=      5-min Rain = 0
KTH1 111833Z 35009KT 00/M11 A3026 RMK A01 T00041108  RH  043%=      5-min Rain = 0
KTH1 111834Z 00010KT 00/M11 A3026 RMK A01 T00041110  RH  042%=      5-min Rain = 0
KTH1 111835Z 34009KT 00/M11 A3026 RMK A01 T00041110  RH  042%=      5-min Rain = 0
KTH1 111836Z 34008KT 01/M11 A3026 RMK A01 T00051107  RH  043%=      5-min Rain = 0
KTH1 111837Z 35009KT 01/M11 A3026 RMK A01 T00061107  RH  042%=      5-min Rain = 0
KTH1 111838Z 34009KT 01/M11 A3026 RMK A01 T00061110  RH  042%=      5-min Rain = 0
KTH1 111839Z 35011KT 01/M11 A3026 RMK A01 T00051111  RH  042%=      5-min Rain = 0
KTH1 111840Z 35009KT 00/M11 A3026 RMK A01 T00031112  RH  042%=      5-min Rain = 0
KTH1 111841Z 35009G15KT 00/M11 A3026 RMK A01 T00031112  RH  042%=      5-min Rain = 0
KTH1 111842Z 35012KT 00/M11 A3026 RMK A01 T00031110  RH  042%=      5-min Rain = 0
KTH1 111843Z 32012G18KT 00/M11 A3026 RMK A01 T00041108  RH  043%=      5-min Rain = 0
KTH1 111844Z 33011KT 00/M11 A3026 RMK A01 T00041107  RH  043%=      5-min Rain = 0
KTH1 111845Z 32009KT 00/M11 A3026 RMK A01 T00041106  RH  044%=      5-min Rain = 0
KTH1 111846Z 33008KT 00/M11 A3026 RMK A01 T00041106  RH  044%=      5-min Rain = 0
KTH1 111847Z 33008KT 00/M11 A3026 RMK A01 T00041107  RH  043%=      5-min Rain = 0
KTH1 111848Z 32009KT 00/M11 A3026 RMK A01 T00041107  RH  043%=      5-min Rain = 0
KTH1 111849Z 33009KT 00/M10 A3025 RMK A01 T00041103  RH  045%=      5-min Rain = 0
KTH1 111850Z 35008KT 00/M10 A3025 RMK A01 T00041103  RH  045%=      5-min Rain = 0
KTH1 111851Z 35010KT 01/M11 A3025 RMK A01 T00051107  RH  043%=      5-min Rain = 0
KTH1 111852Z 35012KT 01/M11 A3025 RMK A01 T00061109  RH  042%=      5-min Rain = 0
KTH1 111853Z 33011G17KT 01/M11 A3025 RMK A01 T00061109  RH  042%=      5-min Rain = 0
KTH1 111854Z 35012KT 01/M11 A3025 RMK A01 T00051110  RH  042%=      5-min Rain = 0
KTH1 111855Z 35008KT 00/M11 A3025 RMK A01 T00041112  RH  041%=      5-min Rain = 0
KTH1 111856Z 34009KT 01/M11 A3025 RMK A01 T00051110  RH  042%=      5-min Rain = 0
KTH1 111857Z 33009KT 01/M11 A3025 RMK A01 T00051112  RH  041%=      5-min Rain = 0
KTH1 111858Z 34006KT 00/M11 A3025 RMK A01 T00041109  RH  042%=      5-min Rain = 0
KTH1 111859Z 35007KT 01/M11 A3025 RMK A01 T00061107  RH  042%=      5-min Rain = 0
KTH1 111900Z 34005KT 01/M11 A3025 RMK A01 T00061110  RH  042%=      5-min Rain = 0
KTH1 111901Z 33010KT 01/M11 A3025 RMK A01 T00061109  RH  042%=      5-min Rain = 0
KTH1 111902Z 33008KT 01/M11 A3025 RMK A01 T00071107  RH  042%=      5-min Rain = 0
KTH1 111903Z 34009KT 01/M11 A3025 RMK A01 T00071107  RH  042%=      5-min Rain = 0
KTH1 111904Z 36009KT 01/M11 A3025 RMK A01 T00091108  RH  041%=      5-min Rain = 0
KTH1 111905Z 35008KT 01/M11 A3025 RMK A01 T00091111  RH  040%=      5-min Rain = 0
KTH1 111906Z 34007G12KT 01/M11 A3025 RMK A01 T00091111  RH  040%=      5-min Rain = 0
KTH1 111907Z 34009KT 01/M11 A3025 RMK A01 T00091111  RH  040%=      5-min Rain = 0
KTH1 111908Z 33007KT 01/M11 A3025 RMK A01 T00091112  RH  040%=      5-min Rain = 0
KTH1 111909Z 32011KT 01/M11 A3025 RMK A01 T00081111  RH  041%=      5-min Rain = 0
KTH1 111910Z 33010G15KT 01/M11 A3025 RMK A01 T00081109  RH  041%=      5-min Rain = 0
KTH1 111911Z 33010KT 01/M11 A3025 RMK A01 T00081111  RH  041%=      5-min Rain = 0
KTH1 111912Z 32008KT 01/M11 A3025 RMK A01 T00081112  RH  040%=      5-min Rain = 0
KTH1 111913Z 33009KT 01/M11 A3024 RMK A01 T00081112  RH  040%=      5-min Rain = 0
KTH1 111914Z 34009KT 01/M11 A3024 RMK A01 T00081110  RH  041%=      5-min Rain = 0
KTH1 111915Z 31011KT 01/M11 A3024 RMK A01 T00111107  RH  041%=      5-min Rain = 0
KTH1 111916Z 32012G18KT 01/M10 A3024 RMK A01 T00121102  RH  042%=      5-min Rain = 0
KTH1 111917Z 34011KT 01/M10 A3024 RMK A01 T00121104  RH  042%=      5-min Rain = 0
KTH1 111918Z 36010KT 01/M11 A3024 RMK A01 T00111112  RH  039%=      5-min Rain = 0
KTH1 111919Z 34007KT 01/M11 A3024 RMK A01 T00101114  RH  039%=      5-min Rain = 0
KTH1 111920Z 34009KT 01/M11 A3024 RMK A01 T00111110  RH  040%=      5-min Rain = 0
KTH1 111921Z 34010KT 01/M11 A3024 RMK A01 T00121110  RH  040%=      5-min Rain = 0
KTH1 111922Z 35010KT 01/M11 A3024 RMK A01 T00111112  RH  039%=      5-min Rain = 0
KTH1 111923Z 33010KT 01/M11 A3024 RMK A01 T00111113  RH  039%=      5-min Rain = 0
KTH1 111924Z 33010KT 01/M11 A3024 RMK A01 T00111112  RH  040%=      5-min Rain = 0
KTH1 111925Z 32009KT 01/M11 A3024 RMK A01 T00101109  RH  041%=      5-min Rain = 0
KTH1 111926Z 33007KT 01/M11 A3024 RMK A01 T00101105  RH  042%=      5-min Rain = 0
KTH1 111927Z 34009G15KT 01/M11 A3024 RMK A01 T00111110  RH  040%=      5-min Rain = 0
KTH1 111928Z 35012KT 01/M11 A3024 RMK A01 T00121113  RH  039%=      5-min Rain = 0
KTH1 111929Z 35009KT 01/M12 A3024 RMK A01 T00091118  RH  038%=      5-min Rain = 0
KTH1 111930Z 36008KT 01/M12 A3024 RMK A01 T00081118  RH  039%=      5-min Rain = 0
KTH1 111931Z 35007KT 01/M12 A3024 RMK A01 T00091115  RH  039%=      5-min Rain = 0
KTH1 111932Z 00007G12KT 01/M11 A3024 RMK A01 T00111113  RH  039%=      5-min Rain = 0
KTH1 111933Z 33009KT 01/M11 A3024 RMK A01 T00141109  RH  039%=      5-min Rain = 0
KTH1 111934Z 33011KT 02/M11 A3024 RMK A01 T00151109  RH  039%=      5-min Rain = 0
KTH1 111935Z 33008KT 01/M11 A3024 RMK A01 T00121113  RH  039%=      5-min Rain = 0
KTH1 111936Z 32013KT 01/M11 A3024 RMK A01 T00111112  RH  040%=      5-min Rain = 0
KTH1 111937Z 34011KT 01/M11 A3024 RMK A01 T00111111  RH  040%=      5-min Rain = 0
KTH1 111938Z 35011KT 01/M11 A3024 RMK A01 T00101114  RH  039%=      5-min Rain = 0
KTH1 111939Z 36011KT 01/M12 A3024 RMK A01 T00101116  RH  039%=      5-min Rain = 0
KTH1 111940Z 35009KT 01/M12 A3024 RMK A01 T00101116  RH  039%=      5-min Rain = 0
KTH1 111941Z 34012KT 01/M11 A3024 RMK A01 T00111114  RH  039%=      5-min Rain = 0
KTH1 111942Z 35009G14KT 01/M12 A3024 RMK A01 T00111115  RH  038%=      5-min Rain = 0
KTH1 111943Z 34010KT 01/M12 A3024 RMK A01 T00111115  RH  038%=      5-min Rain = 0
KTH1 111944Z 34008KT 01/M12 A3024 RMK A01 T00091116  RH  038%=      5-min Rain = 0
KTH1 111945Z 35009KT 01/M12 A3024 RMK A01 T00091115  RH  039%=      5-min Rain = 0
KTH1 111946Z 35008KT 01/M12 A3023 RMK A01 T00081118  RH  039%=      5-min Rain = 0
KTH1 111947Z 35005KT 01/M12 A3023 RMK A01 T00071119  RH  038%=      5-min Rain = 0
KTH1 111948Z 34007G12KT 01/M12 A3023 RMK A01 T00071116  RH  039%=      5-min Rain = 0
KTH1 111949Z 33008KT 01/M11 A3023 RMK A01 T00081114  RH  040%=      5-min Rain = 0
KTH1 111950Z 32010KT 01/M11 A3023 RMK A01 T00091111  RH  040%=      5-min Rain = 0
KTH1 111951Z 32010KT 01/M11 A3023 RMK A01 T00101108  RH  041%=      5-min Rain = 0
KTH1 111952Z 33009KT 01/M11 A3023 RMK A01 T00081105  RH  042%=      5-min Rain = 0
KTH1 111953Z 34007KT 01/M11 A3023 RMK A01 T00081109  RH  041%=      5-min Rain = 0
KTH1 111954Z 34008KT 01/M11 A3023 RMK A01 T00091112  RH  040%=      5-min Rain = 0
KTH1 111955Z 34006KT 01/M11 A3023 RMK A01 T00091114  RH  039%=      5-min Rain = 0
KTH1 111956Z 33007KT 01/M11 A3023 RMK A01 T00091111  RH  040%=      5-min Rain = 0
KTH1 111957Z 33008KT 01/M11 A3023 RMK A01 T00121107  RH  041%=      5-min Rain = 0
KTH1 111958Z 35008KT 01/M11 A3023 RMK A01 T00131109  RH  040%=      5-min Rain = 0
KTH1 111959Z 00006KT 01/M11 A3023 RMK A01 T00131113  RH  038%=      5-min Rain = 0
KTH1 112000Z 35009KT 01/M12 A3023 RMK A01 T00121115  RH  038%=      5-min Rain = 0
KTH1 112001Z 35011G16KT 01/M12 A3023 RMK A01 T00131115  RH  038%=      5-min Rain = 0
KTH1 112002Z 01008KT 02/M11 A3023 RMK A01 T00151113  RH  038%=      5-min Rain = 0
KTH1 112003Z 36009KT 02/M11 A3023 RMK A01 T00171114  RH  037%=      5-min Rain = 0
KTH1 112004Z 35007KT 02/M12 A3023 RMK A01 T00181116  RH  037%=      5-min Rain = 0
KTH1 112005Z 34006KT 02/M12 A3022 RMK A01 T00171117  RH  036%=      5-min Rain = 0
KTH1 112006Z 00003KT 02/M11 A3022 RMK A01 T00181111  RH  038%=      5-min Rain = 0
KTH1 112007Z 34009G14KT 02/M11 A3022 RMK A01 T00241107  RH  037%=      5-min Rain = 0
KTH1 112008Z 33010KT 03/M11 A3022 RMK A01 T00251112  RH  036%=      5-min Rain = 0
KTH1 112009Z 31009KT 02/M11 A3022 RMK A01 T00221113  RH  036%=      5-min Rain = 0
KTH1 112010Z 32009KT 02/M11 A3022 RMK A01 T00191109  RH  038%=      5-min Rain = 0
KTH1 112011Z 33009KT 02/M11 A3022 RMK A01 T00181108  RH  038%=      5-min Rain = 0
KTH1 112012Z 33007KT 02/M11 A3022 RMK A01 T00201111  RH  037%=      5-min Rain = 0
KTH1 112013Z 01007KT 02/M11 A3022 RMK A01 T00221112  RH  037%=      5-min Rain = 0
KTH1 112014Z 35006KT 02/M12 A3022 RMK A01 T00231115  RH  035%=      5-min Rain = 0
KTH1 112015Z 36007KT 02/M12 A3022 RMK A01 T00231116  RH  035%=      5-min Rain = 0
KTH1 112016Z 35007KT 02/M11 A3022 RMK A01 T00241113  RH  036%=      5-min Rain = 0
KTH1 112017Z 32010KT 03/M11 A3022 RMK A01 T00261109  RH  036%=      5-min Rain = 0
KTH1 112018Z 32010KT 03/M11 A3022 RMK A01 T00281106  RH  036%=      5-min Rain = 0
KTH1 112019Z 34009KT 03/M11 A3022 RMK A01 T00301107  RH  036%=      5-min Rain = 0
KTH1 112020Z 35013KT 03/M11 A3022 RMK A01 T00301109  RH  035%=      5-min Rain = 0
KTH1 112021Z 35011G16KT 03/M12 A3022 RMK A01 T00281115  RH  034%=      5-min Rain = 0
KTH1 112022Z 34008KT 03/M11 A3022 RMK A01 T00271114  RH  035%=      5-min Rain = 0
KTH1 112023Z 33010KT 03/M11 A3022 RMK A01 T00271113  RH  035%=      5-min Rain = 0
KTH1 112024Z 34012KT 03/M11 A3022 RMK A01 T00281111  RH  035%=      5-min Rain = 0
KTH1 112025Z 34012KT 03/M11 A3022 RMK A01 T00281113  RH  035%=      5-min Rain = 0
KTH1 112026Z 35009G14KT 03/M12 A3022 RMK A01 T00251115  RH  035%=      5-min Rain = 0
KTH1 112027Z 34006KT 03/M11 A3022 RMK A01 T00251112  RH  036%=      5-min Rain = 0
KTH1 112028Z 32008KT 03/M11 A3022 RMK A01 T00271112  RH  035%=      5-min Rain = 0
KTH1 112029Z 34007KT 03/M11 A3021 RMK A01 T00261113  RH  035%=      5-min Rain = 0
KTH1 112030Z 32011KT 03/M11 A3022 RMK A01 T00251111  RH  036%=      5-min Rain = 0
KTH1 112031Z 32010KT 02/M11 A3022 RMK A01 T00241112  RH  036%=      5-min Rain = 0
KTH1 112032Z 32012KT 02/M11 A3022 RMK A01 T00231113  RH  036%=      5-min Rain = 0
KTH1 112033Z 33010KT 02/M11 A3022 RMK A01 T00221112  RH  036%=      5-min Rain = 0
KTH1 112034Z 33008KT 02/M11 A3022 RMK A01 T00231113  RH  036%=      5-min Rain = 0
KTH1 112035Z 36011KT 03/M11 A3022 RMK A01 T00251112  RH  036%=      5-min Rain = 0
KTH1 112036Z 34011KT 03/M11 A3022 RMK A01 T00251112  RH  036%=      5-min Rain = 0
KTH1 112037Z 34010KT 02/M11 A3022 RMK A01 T00241113  RH  035%=      5-min Rain = 0
KTH1 112038Z 33009KT 02/M11 A3021 RMK A01 T00231112  RH  036%=      5-min Rain = 0
KTH1 112039Z 35008KT 02/M11 A3021 RMK A01 T00241111  RH  036%=      5-min Rain = 0
KTH1 112040Z 35010KT 03/M11 A3021 RMK A01 T00251112  RH  036%=      5-min Rain = 0
KTH1 112041Z 36010KT 03/M11 A3021 RMK A01 T00251114  RH  035%=      5-min Rain = 0
KTH1 112042Z 00007KT 02/M12 A3021 RMK A01 T00241115  RH  035%=      5-min Rain = 0
KTH1 112043Z 36009KT 03/M12 A3021 RMK A01 T00251115  RH  035%=      5-min Rain = 0
KTH1 112044Z 36009KT 02/M12 A3021 RMK A01 T00241117  RH  034%=      5-min Rain = 0
KTH1 112045Z 34007KT 02/M12 A3021 RMK A01 T00231117  RH  035%=      5-min Rain = 0
KTH1 112046Z 33007KT 02/M11 A3021 RMK A01 T00241114  RH  035%=      5-min Rain = 0
KTH1 112047Z 33007KT 03/M11 A3021 RMK A01 T00261110  RH  036%=      5-min Rain = 0
KTH1 112048Z 34008KT 03/M11 A3021 RMK A01 T00291106  RH  036%=      5-min Rain = 0
KTH1 112049Z 36008KT 03/M11 A3021 RMK A01 T00301111  RH  035%=      5-min Rain = 0
KTH1 112050Z 00008G14KT 03/M11 A3021 RMK A01 T00301113  RH  034%=      5-min Rain = 0
KTH1 112051Z 35012KT 03/M11 A3021 RMK A01 T00321113  RH  034%=      5-min Rain = 0
KTH1 112052Z 35009KT 03/M11 A3021 RMK A01 T00311114  RH  034%=      5-min Rain = 0
KTH1 112053Z 35008KT 03/M12 A3021 RMK A01 T00291115  RH  034%=      5-min Rain = 0
KTH1 112054Z 34007KT 03/M12 A3021 RMK A01 T00271115  RH  034%=      5-min Rain = 0
KTH1 112055Z 33007KT 03/M11 A3021 RMK A01 T00271108  RH  036%=      5-min Rain = 0
KTH1 112056Z 32010KT 03/M11 A3021 RMK A01 T00291106  RH  036%=      5-min Rain = 0
KTH1 112057Z 32011KT 03/M10 A3021 RMK A01 T00311102  RH  037%=      5-min Rain = 0
KTH1 112058Z 32009KT 03/M10 A3021 RMK A01 T00311104  RH  036%=      5-min Rain = 0
KTH1 112059Z 34008KT 03/M10 A3021 RMK A01 T00331097  RH  038%=      5-min Rain = 0
KTH1 112100Z 01009KT 03/M11 A3021 RMK A01 T00341106  RH  035%=      5-min Rain = 0
KTH1 112101Z 02007G12KT 03/M11 A3021 RMK A01 T00341112  RH  033%=      5-min Rain = 0
KTH1 112102Z 01010KT 03/M12 A3021 RMK A01 T00331115  RH  033%=      5-min Rain = 0
KTH1 112103Z 34007KT 03/M11 A3021 RMK A01 T00331114  RH  033%=      5-min Rain = 0
KTH1 112104Z 35007KT 03/M11 A3021 RMK A01 T00341112  RH  033%=      5-min Rain = 0
KTH1 112105Z 01005KT 04/M11 A3021 RMK A01 T00371105  RH  035%=      5-min Rain = 0
KTH1 112106Z 36008KT 04/M11 A3021 RMK A01 T00401106  RH  034%=      5-min Rain = 0
KTH1 112107Z 34009G14KT 04/M11 A3021 RMK A01 T00401110  RH  032%=      5-min Rain = 0
KTH1 112108Z 34009KT 04/M11 A3021 RMK A01 T00371113  RH  033%=      5-min Rain = 0
KTH1 112109Z 35007KT 03/M11 A3021 RMK A01 T00341113  RH  033%=      5-min Rain = 0
KTH1 112110Z 34005KT 03/M11 A3021 RMK A01 T00331112  RH  034%=      5-min Rain = 0
KTH1 112111Z 34004G10KT 03/M11 A3021 RMK A01 T00341110  RH  034%=      5-min Rain = 0
KTH1 112112Z 33009KT 04/M11 A3021 RMK A01 T00361108  RH  034%=      5-min Rain = 0
KTH1 112113Z 32009KT 04/M11 A3021 RMK A01 T00371105  RH  034%=      5-min Rain = 0
KTH1 112114Z 34009KT 04/M10 A3021 RMK A01 T00381103  RH  035%=      5-min Rain = 0
KTH1 112115Z 32008KT 04/M11 A3021 RMK A01 T00381108  RH  034%=      5-min Rain = 0
KTH1 112116Z 34008KT 04/M11 A3021 RMK A01 T00351112  RH  033%=      5-min Rain = 0
KTH1 112117Z 34006KT 03/M11 A3021 RMK A01 T00321114  RH  033%=      5-min Rain = 0
KTH1 112118Z 32007KT 03/M11 A3021 RMK A01 T00321110  RH  034%=      5-min Rain = 0
KTH1 112119Z 33005KT 03/M10 A3021 RMK A01 T00321100  RH  037%=      5-min Rain = 0
KTH1 112120Z 36006KT 03/M10 A3021 RMK A01 T00331097  RH  038%=      5-min Rain = 0
KTH1 112121Z 36007KT 03/M10 A3021 RMK A01 T00341104  RH  036%=      5-min Rain = 0
KTH1 112122Z 36009KT 04/M11 A3021 RMK A01 T00351108  RH  034%=      5-min Rain = 0
KTH1 112123Z 35007KT 04/M11 A3021 RMK A01 T00351110  RH  034%=      5-min Rain = 0
KTH1 112124Z 01005KT 03/M11 A3021 RMK A01 T00341111  RH  034%=      5-min Rain = 0
KTH1 112125Z 01008KT 04/M11 A3021 RMK A01 T00351110  RH  034%=      5-min Rain = 0
KTH1 112126Z 01011KT 04/M11 A3021 RMK A01 T00371109  RH  033%=      5-min Rain = 0
KTH1 112127Z 03006KT 04/M11 A3021 RMK A01 T00371112  RH  033%=      5-min Rain = 0
KTH1 112128Z 01008KT 04/M11 A3021 RMK A01 T00351114  RH  033%=      5-min Rain = 0
KTH1 112129Z 36006KT 04/M11 A3021 RMK A01 T00351111  RH  033%=      5-min Rain = 0
KTH1 112130Z 35008KT 04/M11 A3021 RMK A01 T00381110  RH  033%=      5-min Rain = 0
KTH1 112131Z 00007KT 04/M11 A3021 RMK A01 T00391110  RH  033%=      5-min Rain = 0
KTH1 112132Z 01007KT 04/M11 A3021 RMK A01 T00411109  RH  033%=      5-min Rain = 0
KTH1 112133Z 00008KT 04/M11 A3021 RMK A01 T00421109  RH  032%=      5-min Rain = 0
KTH1 112134Z 00009KT 04/M11 A3021 RMK A01 T00411110  RH  032%=      5-min Rain = 0
KTH1 112135Z 00009KT 04/M11 A3021 RMK A01 T00401111  RH  032%=      5-min Rain = 0
KTH1 112136Z 35009KT 04/M11 A3021 RMK A01 T00411110  RH  032%=      5-min Rain = 0
KTH1 112137Z 35007KT 04/M11 A3021 RMK A01 T00411109  RH  032%=      5-min Rain = 0
KTH1 112138Z 35005KT 04/M11 A3021 RMK A01 T00391110  RH  033%=      5-min Rain = 0
KTH1 112139Z 34006KT 04/M11 A3021 RMK A01 T00391108  RH  033%=      5-min Rain = 0
KTH1 112140Z 35006KT 04/M11 A3021 RMK A01 T00401109  RH  033%=      5-min Rain = 0
KTH1 112141Z 00003KT 04/M11 A3021 RMK A01 T00401109  RH  033%=      5-min Rain = 0
KTH1 112142Z 01007KT 04/M11 A3021 RMK A01 T00421107  RH  033%=      5-min Rain = 0
KTH1 112143Z 01006KT 04/M11 A3021 RMK A01 T00441108  RH  032%=      5-min Rain = 0
KTH1 112144Z 34004KT 04/M11 A3021 RMK A01 T00431110  RH  032%=      5-min Rain = 0
KTH1 112145Z 34004KT 04/M11 A3021 RMK A01 T00441109  RH  032%=      5-min Rain = 0
KTH1 112146Z 00009KT 04/M11 A3021 RMK A01 T00441107  RH  032%=      5-min Rain = 0
KTH1 112147Z 01008KT 05/M11 A3021 RMK A01 T00451109  RH  032%=      5-min Rain = 0
KTH1 112148Z 35007KT 04/M11 A3021 RMK A01 T00421112  RH  032%=      5-min Rain = 0
KTH1 112149Z 34005KT 04/M11 A3021 RMK A01 T00401112  RH  032%=      5-min Rain = 0
KTH1 112150Z 36003KT 04/M11 A3021 RMK A01 T00391111  RH  032%=      5-min Rain = 0
KTH1 112151Z 02003KT 04/M11 A3021 RMK A01 T00381110  RH  033%=      5-min Rain = 0
KTH1 112152Z 00005G11KT 04/M11 A3021 RMK A01 T00391109  RH  033%=      5-min Rain = 0
KTH1 112153Z 33006KT 04/M11 A3021 RMK A01 T00391109  RH  033%=      5-min Rain = 0
KTH1 112154Z 33008KT 04/M11 A3021 RMK A01 T00391107  RH  034%=      5-min Rain = 0
KTH1 112155Z 34007KT 04/M10 A3021 RMK A01 T00381104  RH  035%=      5-min Rain = 0
KTH1 112156Z 35006KT 04/M10 A3021 RMK A01 T00381102  RH  035%=      5-min Rain = 0
KTH1 112157Z 34006KT 04/M10 A3021 RMK A01 T00391104  RH  034%=      5-min Rain = 0
KTH1 112158Z 35007KT 04/M11 A3021 RMK A01 T00391106  RH  034%=      5-min Rain = 0
KTH1 112159Z 35008KT 04/M11 A3021 RMK A01 T00391105  RH  034%=      5-min Rain = 0
KTH1 112200Z 35007KT 04/M11 A3021 RMK A01 T00391106  RH  034%=      5-min Rain = 0
KTH1 112201Z 34006KT 04/M11 A302 RMK A01 T00391105  RH  034%=      5-min Rain = 0
KTH1 112202Z 35007KT 04/M11 A302 RMK A01 T00401105  RH  034%=      5-min Rain = 0
KTH1 112203Z 34008KT 04/M11 A302 RMK A01 T00411105  RH  034%=      5-min Rain = 0
KTH1 112204Z 35009KT 04/M10 A302 RMK A01 T00421104  RH  034%=      5-min Rain = 0
KTH1 112205Z 35008KT 04/M11 A302 RMK A01 T00421106  RH  033%=      5-min Rain = 0
KTH1 112206Z 00006KT 04/M11 A302 RMK A01 T00411106  RH  033%=      5-min Rain = 0
KTH1 112207Z 01007KT 04/M11 A302 RMK A01 T00421105  RH  033%=      5-min Rain = 0
KTH1 112208Z 00007KT 04/M11 A302 RMK A01 T00421107  RH  033%=      5-min Rain = 0
KTH1 112209Z 01005KT 04/M11 A302 RMK A01 T00431105  RH  033%=      5-min Rain = 0
KTH1 112210Z 01007KT 04/M10 A302 RMK A01 T00441103  RH  033%=      5-min Rain = 0
KTH1 112211Z 03007KT 05/M11 A302 RMK A01 T00461105  RH  032%=      5-min Rain = 0
KTH1 112212Z 36007KT 05/M11 A3021 RMK A01 T00471107  RH  032%=      5-min Rain = 0
KTH1 112213Z 35005KT 05/M11 A3021 RMK A01 T00461107  RH  032%=      5-min Rain = 0
KTH1 112214Z 34006KT 05/M11 A3021 RMK A01 T00471106  RH  032%=      5-min Rain = 0
KTH1 112215Z 33006KT 05/M11 A3021 RMK A01 T00471106  RH  032%=      5-min Rain = 0
KTH1 112216Z 34007KT 05/M11 A302 RMK A01 T00471105  RH  032%=      5-min Rain = 0
KTH1 112217Z 02005G11KT 05/M11 A302 RMK A01 T00481105  RH  032%=      5-min Rain = 0
KTH1 112218Z 02008KT 05/M10 A302 RMK A01 T00511104  RH  032%=      5-min Rain = 0
KTH1 112219Z 01008KT 05/M11 A302 RMK A01 T00511106  RH  031%=      5-min Rain = 0
KTH1 112220Z 01005KT 05/M11 A302 RMK A01 T00491108  RH  031%=      5-min Rain = 0
KTH1 112221Z 00006KT 05/M11 A302 RMK A01 T00491107  RH  031%=      5-min Rain = 0
KTH1 112222Z 02004KT 05/M11 A302 RMK A01 T00491109  RH  031%=      5-min Rain = 0
KTH1 112223Z 02004KT 05/M11 A302 RMK A01 T00471109  RH  031%=      5-min Rain = 0
KTH1 112224Z 01003KT 05/M11 A302 RMK A01 T00481107  RH  031%=      5-min Rain = 0
KTH1 112225Z 32003KT 05/M11 A302 RMK A01 T00501105  RH  032%=      5-min Rain = 0
KTH1 112226Z 33005KT 05/M10 A302 RMK A01 T00521100  RH  032%=      5-min Rain = 0
KTH1 112227Z 33004KT 05/M10 A302 RMK A01 T00541098  RH  033%=      5-min Rain = 0
KTH1 112228Z 33004KT 06/M10 A302 RMK A01 T00551100  RH  032%=      5-min Rain = 0
KTH1 112229Z 36005KT 05/M10 A302 RMK A01 T00541101  RH  032%=      5-min Rain = 0
KTH1 112230Z 35010KT 06/M10 A302 RMK A01 T00551103  RH  031%=      5-min Rain = 0
KTH1 112231Z 36010KT 05/M11 A302 RMK A01 T00541106  RH  031%=      5-min Rain = 0
KTH1 112232Z 36007KT 05/M11 A302 RMK A01 T00511107  RH  031%=      5-min Rain = 0
KTH1 112233Z 35007KT 05/M11 A302 RMK A01 T00511106  RH  031%=      5-min Rain = 0
KTH1 112234Z 35005KT 05/M11 A302 RMK A01 T00511105  RH  031%=      5-min Rain = 0
KTH1 112235Z 35006KT 05/M11 A302 RMK A01 T00511105  RH  031%=      5-min Rain = 0
KTH1 112236Z 01006KT 05/M10 A3021 RMK A01 T00521103  RH  032%=      5-min Rain = 0
KTH1 112237Z 01007KT 05/M10 A3021 RMK A01 T00531104  RH  031%=      5-min Rain = 0
KTH1 112238Z 00007KT 05/M11 A3021 RMK A01 T00521106  RH  031%=      5-min Rain = 0
KTH1 112239Z 01007KT 05/M11 A3021 RMK A01 T00511107  RH  031%=      5-min Rain = 0
KTH1 112240Z 01006KT 05/M11 A3021 RMK A01 T00491108  RH  031%=      5-min Rain = 0
KTH1 112241Z 01006KT 05/M11 A3021 RMK A01 T00491107  RH  031%=      5-min Rain = 0
KTH1 112242Z 00007KT 05/M11 A3021 RMK A01 T00491106  RH  031%=      5-min Rain = 0
KTH1 112243Z 02006KT 05/M11 A3021 RMK A01 T00501107  RH  031%=      5-min Rain = 0
KTH1 112244Z 02008KT 05/M11 A3021 RMK A01 T00501106  RH  031%=      5-min Rain = 0
KTH1 112245Z 05008KT 05/M11 A3021 RMK A01 T00501107  RH  031%=      5-min Rain = 0
KTH1 112246Z 04008KT 05/M11 A3021 RMK A01 T00511106  RH  031%=      5-min Rain = 0
KTH1 112247Z 05007KT 05/M11 A3021 RMK A01 T00501107  RH  031%=      5-min Rain = 0
KTH1 112248Z 05006KT 05/M11 A3021 RMK A01 T00501107  RH  031%=      5-min Rain = 0
KTH1 112249Z 04007KT 05/M11 A3021 RMK A01 T00501107  RH  031%=      5-min Rain = 0
KTH1 112250Z 06007KT 05/M11 A302 RMK A01 T00501107  RH  031%=      5-min Rain = 0
KTH1 112251Z 03009KT 05/M11 A302 RMK A01 T00501106  RH  031%=      5-min Rain = 0
KTH1 112252Z 02010KT 05/M11 A3021 RMK A01 T00491107  RH  031%=      5-min Rain = 0
KTH1 112253Z 02007KT 05/M11 A3021 RMK A01 T00471108  RH  031%=      5-min Rain = 0
KTH1 112254Z 03004KT 05/M11 A3021 RMK A01 T00461107  RH  032%=      5-min Rain = 0
KTH1 112255Z 02004KT 05/M11 A3021 RMK A01 T00481105  RH  032%=      5-min Rain = 0
KTH1 112256Z 05005KT 05/M10 A3021 RMK A01 T00511103  RH  032%=      5-min Rain = 0
KTH1 112257Z 01007KT 05/M10 A3021 RMK A01 T00531103  RH  031%=      5-min Rain = 0
KTH1 112258Z 03006KT 05/M10 A3021 RMK A01 T00531104  RH  031%=      5-min Rain = 0
KTH1 112259Z 01008KT 05/M11 A3021 RMK A01 T00521106  RH  031%=      5-min Rain = 0
KTH1 112300Z 02005KT 05/M11 A3021 RMK A01 T00491108  RH  031%=      5-min Rain = 0
KTH1 112301Z 35006KT 05/M11 A3021 RMK A01 T00481107  RH  032%=      5-min Rain = 0
KTH1 112302Z 35005KT 05/M11 A3021 RMK A01 T00481106  RH  032%=      5-min Rain = 0
KTH1 112303Z 00005KT 05/M11 A3021 RMK A01 T00481105  RH  032%=      5-min Rain = 0
KTH1 112304Z 00005KT 05/M11 A3021 RMK A01 T00491105  RH  032%=      5-min Rain = 0
KTH1 112305Z 35007KT 05/M11 A3021 RMK A01 T00501105  RH  032%=      5-min Rain = 0
KTH1 112306Z 00005G10KT 05/M11 A3021 RMK A01 T00501105  RH  032%=      5-min Rain = 0
KTH1 112307Z 02006KT 05/M11 A3021 RMK A01 T00491105  RH  032%=      5-min Rain = 0
KTH1 112308Z 02007KT 05/M11 A3021 RMK A01 T00501105  RH  032%=      5-min Rain = 0
KTH1 112309Z 02007KT 05/M11 A3021 RMK A01 T00491106  RH  031%=      5-min Rain = 0
KTH1 112310Z 01006KT 05/M11 A3021 RMK A01 T00481107  RH  032%=      5-min Rain = 0
KTH1 112311Z 35010KT 05/M11 A3021 RMK A01 T00471107  RH  032%=      5-min Rain = 0
KTH1 112312Z 35011KT 05/M11 A3021 RMK A01 T00461107  RH  032%=      5-min Rain = 0
KTH1 112313Z 00007KT 04/M11 A3021 RMK A01 T00441108  RH  032%=      5-min Rain = 0
KTH1 112314Z 02007KT 04/M11 A3021 RMK A01 T00441107  RH  033%=      5-min Rain = 0
KTH1 112315Z 01007KT 04/M11 A3021 RMK A01 T00441107  RH  033%=      5-min Rain = 0
KTH1 112316Z 35005KT 04/M11 A3021 RMK A01 T00441107  RH  032%=      5-min Rain = 0
KTH1 112317Z 35005KT 04/M11 A3021 RMK A01 T00441105  RH  033%=      5-min Rain = 0
KTH1 112318Z 36007KT 05/M10 A3021 RMK A01 T00451104  RH  033%=      5-min Rain = 0
KTH1 112319Z 36008KT 05/M11 A3021 RMK A01 T00461105  RH  033%=      5-min Rain = 0
KTH1 112320Z 36007KT 05/M11 A3021 RMK A01 T00461106  RH  032%=      5-min Rain = 0
KTH1 112321Z 35006KT 05/M11 A3021 RMK A01 T00461106  RH  032%=      5-min Rain = 0
KTH1 112322Z 35006KT 05/M11 A3021 RMK A01 T00451106  RH  032%=      5-min Rain = 0
KTH1 112323Z 36005KT 05/M11 A3021 RMK A01 T00451106  RH  032%=      5-min Rain = 0
KTH1 112324Z 00004KT 05/M11 A3021 RMK A01 T00451106  RH  032%=      5-min Rain = 0
KTH1 112325Z 34003KT 05/M11 A3021 RMK A01 T00451105  RH  033%=      5-min Rain = 0
KTH1 112326Z 36004KT 05/M10 A3021 RMK A01 T00461104  RH  033%=      5-min Rain = 0
KTH1 112327Z 36005KT 05/M10 A3021 RMK A01 T00461103  RH  033%=      5-min Rain = 0
KTH1 112328Z 02003KT 05/M10 A3021 RMK A01 T00471104  RH  033%=      5-min Rain = 0
KTH1 112329Z 02005KT 05/M11 A3021 RMK A01 T00471105  RH  032%=      5-min Rain = 0
KTH1 112330Z 01006KT 05/M11 A3021 RMK A01 T00471106  RH  032%=      5-min Rain = 0
KTH1 112331Z 02005KT 05/M11 A3021 RMK A01 T00461106  RH  032%=      5-min Rain = 0
KTH1 112332Z 02005KT 05/M11 A3021 RMK A01 T00451106  RH  032%=      5-min Rain = 0
KTH1 112333Z 02005KT 05/M11 A3021 RMK A01 T00451106  RH  032%=      5-min Rain = 0
KTH1 112334Z 03006KT 05/M11 A3021 RMK A01 T00451107  RH  032%=      5-min Rain = 0
KTH1 112335Z 02005KT 04/M11 A3021 RMK A01 T00441107  RH  032%=      5-min Rain = 0
KTH1 112336Z 02004KT 04/M11 A3021 RMK A01 T00441107  RH  033%=      5-min Rain = 0
KTH1 112337Z 36004KT 04/M11 A3022 RMK A01 T00431107  RH  033%=      5-min Rain = 0
KTH1 112338Z 33006KT 04/M11 A3022 RMK A01 T00431106  RH  033%=      5-min Rain = 0
KTH1 112339Z 36007KT 04/M11 A3022 RMK A01 T00441105  RH  033%=      5-min Rain = 0
KTH1 112340Z 01005KT 04/M11 A3022 RMK A01 T00441105  RH  033%=      5-min Rain = 0
KTH1 112341Z 02006KT 04/M11 A3022 RMK A01 T00431106  RH  033%=      5-min Rain = 0
KTH1 112342Z 03005KT 04/M11 A3022 RMK A01 T00421106  RH  033%=      5-min Rain = 0
KTH1 112343Z 02004KT 04/M11 A3022 RMK A01 T00431106  RH  033%=      5-min Rain = 0
KTH1 112344Z 02004KT 04/M11 A3022 RMK A01 T00421106  RH  033%=      5-min Rain = 0
KTH1 112345Z 00004KT 04/M11 A3022 RMK A01 T00421106  RH  033%=      5-min Rain = 0
KTH1 112346Z 00004KT 04/M11 A3022 RMK A01 T00421106  RH  033%=      5-min Rain = 0
KTH1 112347Z 00004KT 04/M11 A3022 RMK A01 T00421106  RH  033%=      5-min Rain = 0
KTH1 112348Z 00007KT 04/M11 A3022 RMK A01 T00421105  RH  033%=      5-min Rain = 0
KTH1 112349Z 36005KT 04/M11 A3022 RMK A01 T00411105  RH  034%=      5-min Rain = 0
KTH1 112350Z 01005KT 04/M10 A3022 RMK A01 T00411104  RH  034%=      5-min Rain = 0
KTH1 112351Z 02003KT 04/M11 A3022 RMK A01 T00401105  RH  034%=      5-min Rain = 0
KTH1 112352Z 01002KT 04/M11 A3022 RMK A01 T00401106  RH  034%=      5-min Rain = 0
KTH1 112353Z 01003KT 04/M11 A3022 RMK A01 T00401105  RH  034%=      5-min Rain = 0
KTH1 112354Z 01004KT 04/M11 A3022 RMK A01 T00401105  RH  034%=      5-min Rain = 0
KTH1 112355Z 02004KT 04/M11 A3022 RMK A01 T00391106  RH  034%=      5-min Rain = 0
KTH1 112356Z 03004KT 04/M11 A3022 RMK A01 T00381107  RH  034%=      5-min Rain = 0
KTH1 112357Z 01003KT 04/M11 A3022 RMK A01 T00381107  RH  034%=      5-min Rain = 0
KTH1 112358Z 02004KT 04/M11 A3023 RMK A01 T00371107  RH  034%=      5-min Rain = 0
KTH1 112359Z 01003KT 04/M11 A3023 RMK A01 T00371107  RH  034%=      5-min Rain = 0
KTH1 120000Z 01005KT 04/M11 A3023 RMK A01 T00361107  RH  034%=      5-min Rain = 0
KTH1 120001Z 00004KT 04/M11 A3023 RMK A01 T00361107  RH  034%=      5-min Rain = 0
KTH1 120002Z 00005KT 04/M11 A3023 RMK A01 T00351106  RH  035%=      5-min Rain = 0
KTH1 120003Z 01005KT 03/M11 A3022 RMK A01 T00341106  RH  035%=      5-min Rain = 0
KTH1 120004Z 01005KT 03/M11 A3022 RMK A01 T00331107  RH  035%=      5-min Rain = 0
KTH1 120005Z 00005KT 03/M11 A3023 RMK A01 T00331107  RH  035%=      5-min Rain = 0
KTH1 120006Z 01004KT 03/M11 A3023 RMK A01 T00321107  RH  035%=      5-min Rain = 0
KTH1 120007Z 00005KT 03/M11 A3023 RMK A01 T00321107  RH  035%=      5-min Rain = 0
KTH1 120008Z 01004KT 03/M11 A3023 RMK A01 T00311107  RH  035%=      5-min Rain = 0
KTH1 120009Z 02004KT 03/M11 A3023 RMK A01 T00311107  RH  036%=      5-min Rain = 0
KTH1 120010Z 02005KT 03/M11 A3023 RMK A01 T00311107  RH  036%=      5-min Rain = 0
KTH1 120011Z 02004KT 03/M11 A3023 RMK A01 T00311107  RH  036%=      5-min Rain = 0
KTH1 120012Z 02004KT 03/M11 A3023 RMK A01 T00311107  RH  036%=      5-min Rain = 0
KTH1 120013Z 01003KT 03/M11 A3023 RMK A01 T00301107  RH  036%=      5-min Rain = 0
KTH1 120014Z 01004KT 03/M11 A3023 RMK A01 T00301107  RH  036%=      5-min Rain = 0
KTH1 120015Z 01003KT 03/M11 A3023 RMK A01 T00291107  RH  036%=      5-min Rain = 0
KTH1 120016Z 36002KT 03/M11 A3023 RMK A01 T00281108  RH  036%=      5-min Rain = 0
KTH1 120017Z 36004KT 03/M11 A3023 RMK A01 T00281107  RH  036%=      5-min Rain = 0
KTH1 120018Z 36004KT 03/M11 A3023 RMK A01 T00271107  RH  037%=      5-min Rain = 0
KTH1 120019Z 35003KT 03/M11 A3023 RMK A01 T00271107  RH  037%=      5-min Rain = 0
KTH1 120020Z 35003KT 03/M10 A3023 RMK A01 T00271104  RH  037%=      5-min Rain = 0
KTH1 120021Z 35003KT 03/M10 A3024 RMK A01 T00261102  RH  038%=      5-min Rain = 0
KTH1 120022Z 34004KT 03/M10 A3024 RMK A01 T00261101  RH  039%=      5-min Rain = 0
KTH1 120023Z 34004KT 03/M10 A3024 RMK A01 T00261101  RH  039%=      5-min Rain = 0
KTH1 120024Z 34004KT 03/M10 A3024 RMK A01 T00261099  RH  039%=      5-min Rain = 0
KTH1 120025Z 34004KT 03/M10 A3024 RMK A01 T00251098  RH  040%=      5-min Rain = 0
KTH1 120026Z 35004KT 03/M10 A3024 RMK A01 T00251098  RH  040%=      5-min Rain = 0
KTH1 120027Z 34004KT 03/M10 A3024 RMK A01 T00251100  RH  039%=      5-min Rain = 0
KTH1 120028Z 35004KT 02/M10 A3024 RMK A01 T00241102  RH  039%=      5-min Rain = 0
KTH1 120029Z 35004KT 02/M11 A3024 RMK A01 T00231105  RH  038%=      5-min Rain = 0
KTH1 120030Z 35004KT 02/M11 A3024 RMK A01 T00231106  RH  038%=      5-min Rain = 0
KTH1 120031Z 35004KT 02/M11 A3024 RMK A01 T00211106  RH  038%=      5-min Rain = 0
KTH1 120032Z 35004KT 02/M11 A3024 RMK A01 T00211105  RH  039%=      5-min Rain = 0
KTH1 120033Z 35004KT 02/M11 A3024 RMK A01 T00201105  RH  039%=      5-min Rain = 0
KTH1 120034Z 35004KT 02/M11 A3024 RMK A01 T00201105  RH  039%=      5-min Rain = 0
KTH1 120035Z 35004KT 02/M11 A3024 RMK A01 T00191105  RH  039%=      5-min Rain = 0
KTH1 120036Z 35004KT 02/M11 A3024 RMK A01 T00191105  RH  039%=      5-min Rain = 0
KTH1 120037Z 35004KT 02/M11 A3024 RMK A01 T00181105  RH  040%=      5-min Rain = 0
KTH1 120038Z 35005KT 02/M10 A3024 RMK A01 T00171104  RH  040%=      5-min Rain = 0
KTH1 120039Z 35004KT 02/M11 A3024 RMK A01 T00161105  RH  040%=      5-min Rain = 0
KTH1 120040Z 35004KT 02/M11 A3024 RMK A01 T00161105  RH  040%=      5-min Rain = 0
KTH1 120041Z 35004KT 02/M11 A3024 RMK A01 T00151106  RH  040%=      5-min Rain = 0
KTH1 120042Z 35004KT 01/M11 A3024 RMK A01 T00141106  RH  040%=      5-min Rain = 0
KTH1 120043Z 35004KT 01/M11 A3024 RMK A01 T00141106  RH  040%=      5-min Rain = 0
KTH1 120044Z 34003KT 01/M11 A3024 RMK A01 T00131107  RH  040%=      5-min Rain = 0
KTH1 120045Z 34003KT 01/M11 A3025 RMK A01 T00131106  RH  041%=      5-min Rain = 0
KTH1 120046Z 35003KT 01/M10 A3025 RMK A01 T00131104  RH  041%=      5-min Rain = 0
KTH1 120047Z 35003KT 01/M10 A3025 RMK A01 T00131104  RH  041%=      5-min Rain = 0
KTH1 120048Z 35003KT 01/M11 A3025 RMK A01 T00131106  RH  041%=      5-min Rain = 0
KTH1 120049Z 35003KT 01/M11 A3025 RMK A01 T00131107  RH  040%=      5-min Rain = 0
KTH1 120050Z 34003KT 01/M11 A3025 RMK A01 T00131107  RH  040%=      5-min Rain = 0
KTH1 120051Z 34003KT 01/M11 A3025 RMK A01 T00121108  RH  041%=      5-min Rain = 0
KTH1 120052Z 35003KT 01/M11 A3025 RMK A01 T00121107  RH  041%=      5-min Rain = 0
KTH1 120053Z 34004KT 01/M11 A3025 RMK A01 T00111106  RH  041%=      5-min Rain = 0
KTH1 120054Z 35004KT 01/M11 A3025 RMK A01 T00111107  RH  041%=      5-min Rain = 0
KTH1 120055Z 35003KT 01/M11 A3025 RMK A01 T00101107  RH  041%=      5-min Rain = 0
KTH1 120056Z 35003KT 01/M11 A3025 RMK A01 T00101108  RH  041%=      5-min Rain = 0
KTH1 120057Z 34003KT 01/M11 A3025 RMK A01 T00091109  RH  041%=      5-min Rain = 0
KTH1 120058Z 35004KT 01/M11 A3025 RMK A01 T00091109  RH  041%=      5-min Rain = 0
KTH1 120059Z 35004KT 01/M11 A3025 RMK A01 T00081109  RH  041%=      5-min Rain = 0
KTH1 120100Z 35004KT 01/M11 A3025 RMK A01 T00071110  RH  041%=      5-min Rain = 0
KTH1 120101Z 35003KT 01/M11 A3025 RMK A01 T00071109  RH  041%=      5-min Rain = 0
KTH1 120102Z 35004KT 01/M11 A3025 RMK A01 T00061109  RH  042%=      5-min Rain = 0
KTH1 120103Z 35003KT 01/M11 A3025 RMK A01 T00061109  RH  042%=      5-min Rain = 0
KTH1 120104Z 35003KT 01/M11 A3025 RMK A01 T00051108  RH  042%=      5-min Rain = 0
KTH1 120105Z 35003KT 01/M11 A3025 RMK A01 T00051108  RH  043%=      5-min Rain = 0
KTH1 120106Z 36004KT 00/M11 A3025 RMK A01 T00041108  RH  043%=      5-min Rain = 0
KTH1 120107Z 35004KT 00/M11 A3025 RMK A01 T00041108  RH  043%=      5-min Rain = 0
KTH1 120108Z 35004KT 00/M11 A3025 RMK A01 T00041108  RH  043%=      5-min Rain = 0
KTH1 120109Z 35003KT 00/M11 A3025 RMK A01 T00041108  RH  043%=      5-min Rain = 0
KTH1 120110Z 35004KT 00/M11 A3025 RMK A01 T00031109  RH  043%=      5-min Rain = 0
KTH1 120111Z 35003KT 00/M11 A3025 RMK A01 T00031108  RH  043%=      5-min Rain = 0
KTH1 120112Z 36003KT 00/M11 A3025 RMK A01 T00031109  RH  043%=      5-min Rain = 0
KTH1 120113Z 35004KT 00/M11 A3025 RMK A01 T00031109  RH  043%=      5-min Rain = 0
KTH1 120114Z 35004KT 00/M11 A3025 RMK A01 T00031109  RH  043%=      5-min Rain = 0
KTH1 120115Z 35004KT 00/M11 A3025 RMK A01 T00031109  RH  043%=      5-min Rain = 0
KTH1 120116Z 35004KT 00/M11 A3025 RMK A01 T00021109  RH  043%=      5-min Rain = 0
KTH1 120117Z 35004KT 00/M11 A3025 RMK A01 T00021108  RH  043%=      5-min Rain = 0
KTH1 120118Z 35004KT 00/M11 A3025 RMK A01 T00011108  RH  044%=      5-min Rain = 0
KTH1 120119Z 35003KT 00/M11 A3025 RMK A01 T00011107  RH  044%=      5-min Rain = 0
KTH1 120120Z 35004KT 00/M11 A3025 RMK A01 T00011107  RH  044%=      5-min Rain = 0
KTH1 120121Z 36003KT 00/11 A3025 RMK A01 T00000-108  RH  044%=      5-min Rain = 0
KTH1 120122Z 36004KT 00/11 A3025 RMK A01 T00-00-109  RH  044%=      5-min Rain = 0
KTH1 120123Z 35004KT M00/M11 A3025 RMK A01 T10011109  RH  044%=      5-min Rain = 0
KTH1 120124Z 35004KT M00/M11 A3025 RMK A01 T10011109  RH  044%=      5-min Rain = 0
KTH1 120125Z 36003KT M00/M11 A3025 RMK A01 T10021110  RH  044%=      5-min Rain = 0
KTH1 120126Z 36003KT M00/M11 A3025 RMK A01 T10031110  RH  044%=      5-min Rain = 0
KTH1 120127Z 00003KT M00/M11 A3025 RMK A01 T10031110  RH  044%=      5-min Rain = 0
KTH1 120128Z 35003KT M00/M11 A3025 RMK A01 T10041110  RH  045%=      5-min Rain = 0
KTH1 120129Z 35003KT M00/M11 A3026 RMK A01 T10041110  RH  045%=      5-min Rain = 0
KTH1 120130Z 35003KT M00/M11 A3026 RMK A01 T10041110  RH  045%=      5-min Rain = 0
KTH1 120131Z 35003KT M01/M11 A3026 RMK A01 T10051110  RH  045%=      5-min Rain = 0
KTH1 120132Z 01002KT M01/M11 A3026 RMK A01 T10051110  RH  045%=      5-min Rain = 0
KTH1 120133Z 02002KT M01/M11 A3026 RMK A01 T10051110  RH  045%=      5-min Rain = 0
KTH1 120134Z 02002KT M01/M11 A3026 RMK A01 T10051110  RH  045%=      5-min Rain = 0
KTH1 120135Z 01002KT M01/M11 A3026 RMK A01 T10051111  RH  045%=      5-min Rain = 0
KTH1 120136Z 01002KT M01/M11 A3026 RMK A01 T10061111  RH  045%=      5-min Rain = 0
KTH1 120137Z 00002KT M01/M11 A3026 RMK A01 T10061111  RH  045%=      5-min Rain = 0
KTH1 120138Z 01001KT M01/M11 A3026 RMK A01 T10061110  RH  045%=      5-min Rain = 0
KTH1 120139Z 01002KT M01/M11 A3026 RMK A01 T10061111  RH  045%=      5-min Rain = 0
KTH1 120140Z 01002KT M01/M11 A3026 RMK A01 T10061110  RH  045%=      5-min Rain = 0
KTH1 120141Z 01002KT M01/M11 A3026 RMK A01 T10061110  RH  045%=      5-min Rain = 0
KTH1 120142Z 02001KT M01/M11 A3026 RMK A01 T10051110  RH  045%=      5-min Rain = 0
KTH1 120143Z 02002KT M00/M11 A3026 RMK A01 T10041110  RH  045%=      5-min Rain = 0
KTH1 120144Z 02002KT M00/M11 A3026 RMK A01 T10041110  RH  045%=      5-min Rain = 0
KTH1 120145Z 03002KT M00/M11 A3026 RMK A01 T10031110  RH  045%=      5-min Rain = 0
KTH1 120146Z 02002KT M00/M11 A3026 RMK A01 T10041111  RH  044%=      5-min Rain = 0
KTH1 120147Z 03001KT M00/M11 A3026 RMK A01 T10041110  RH  045%=      5-min Rain = 0
KTH1 120148Z 04001KT M01/M11 A3027 RMK A01 T10051111  RH  045%=      5-min Rain = 0
KTH1 120149Z 03001KT M01/M11 A3027 RMK A01 T10051111  RH  045%=      5-min Rain = 0
KTH1 120150Z 03001KT M01/M11 A3027 RMK A01 T10051111  RH  045%=      5-min Rain = 0
KTH1 120151Z 04001KT M01/M11 A3027 RMK A01 T10061111  RH  045%=      5-min Rain = 0
KTH1 120152Z 02002KT M01/M11 A3027 RMK A01 T10061111  RH  045%=      5-min Rain = 0
KTH1 120153Z 02002KT M01/M11 A3027 RMK A01 T10061111  RH  045%=      5-min Rain = 0
KTH1 120154Z 03002KT M01/M11 A3027 RMK A01 T10071111  RH  045%=      5-min Rain = 0
KTH1 120155Z 02002KT M01/M11 A3027 RMK A01 T10071111  RH  045%=      5-min Rain = 0
KTH1 120156Z 02003KT M01/M11 A3027 RMK A01 T10071111  RH  045%=      5-min Rain = 0
KTH1 120157Z 02003KT M01/M11 A3027 RMK A01 T10071111  RH  045%=      5-min Rain = 0
KTH1 120158Z 03003KT M01/M11 A3027 RMK A01 T10081112  RH  045%=      5-min Rain = 0
KTH1 120159Z 03002KT M01/M11 A3026 RMK A01 T10081111  RH  046%=      5-min Rain = 0
KTH1 120200Z 04002KT M01/M11 A3026 RMK A01 T10091111  RH  046%=      5-min Rain = 0
KTH1 120201Z 04002KT M01/M11 A3026 RMK A01 T10101111  RH  046%=      5-min Rain = 0
KTH1 120202Z 03003KT M01/M11 A3026 RMK A01 T10101112  RH  046%=      5-min Rain = 0
KTH1 120203Z 03003KT M01/M11 A3026 RMK A01 T10111112  RH  046%=      5-min Rain = 0
KTH1 120204Z 03003KT M01/M11 A3027 RMK A01 T10111112  RH  046%=      5-min Rain = 0
KTH1 120205Z 03002KT M01/M11 A3027 RMK A01 T10111112  RH  046%=      5-min Rain = 0
KTH1 120206Z 03002KT M01/M11 A3027 RMK A01 T10111112  RH  046%=      5-min Rain = 0
KTH1 120207Z 03002KT M01/M11 A3027 RMK A01 T10121112  RH  046%=      5-min Rain = 0
KTH1 120208Z 02002KT M01/M11 A3027 RMK A01 T10121112  RH  046%=      5-min Rain = 0
KTH1 120209Z 02002KT M01/M11 A3027 RMK A01 T10121112  RH  047%=      5-min Rain = 0
KTH1 120210Z 02002KT M01/M11 A3027 RMK A01 T10131112  RH  047%=      5-min Rain = 0
KTH1 120211Z 01002KT M01/M11 A3027 RMK A01 T10131112  RH  047%=      5-min Rain = 0
KTH1 120212Z 36002KT M01/M11 A3027 RMK A01 T10131112  RH  047%=      5-min Rain = 0
KTH1 120213Z 01002KT M01/M11 A3027 RMK A01 T10121111  RH  047%=      5-min Rain = 0
KTH1 120214Z 01002KT M01/M11 A3027 RMK A01 T10131111  RH  047%=      5-min Rain = 0
KTH1 120215Z 03002KT M01/M11 A3027 RMK A01 T10121111  RH  047%=      5-min Rain = 0
KTH1 120216Z 03002KT M01/M11 A3027 RMK A01 T10121111  RH  047%=      5-min Rain = 0
KTH1 120217Z 03002KT M01/M11 A3027 RMK A01 T10121112  RH  047%=      5-min Rain = 0
KTH1 120218Z 03002KT M01/M11 A3027 RMK A01 T10121112  RH  047%=      5-min Rain = 0
KTH1 120219Z 03002KT M01/M11 A3027 RMK A01 T10131112  RH  047%=      5-min Rain = 0
KTH1 120220Z 05001KT M01/M11 A3027 RMK A01 T10131113  RH  047%=      5-min Rain = 0
KTH1 120221Z 05000KT M01/M11 A3028 RMK A01 T10131113  RH  047%=      5-min Rain = 0
KTH1 120222Z 03002KT M01/M11 A3028 RMK A01 T10131112  RH  047%=      5-min Rain = 0
KTH1 120223Z 04002KT M01/M11 A3028 RMK A01 T10131112  RH  047%=      5-min Rain = 0
KTH1 120224Z 03002KT M01/M11 A3028 RMK A01 T10131113  RH  047%=      5-min Rain = 0
KTH1 120225Z 06000KT M01/M11 A3028 RMK A01 T10131113  RH  047%=      5-min Rain = 0
KTH1 120226Z 04002KT M01/M11 A3028 RMK A01 T10131112  RH  047%=      5-min Rain = 0
KTH1 120227Z 03002KT M01/M11 A3028 RMK A01 T10131113  RH  047%=      5-min Rain = 0
KTH1 120228Z 03002KT M01/M11 A3028 RMK A01 T10131113  RH  047%=      5-min Rain = 0
KTH1 120229Z 02002KT M01/M11 A3028 RMK A01 T10131113  RH  047%=      5-min Rain = 0
KTH1 120230Z 03002KT M01/M11 A3028 RMK A01 T10131113  RH  047%=      5-min Rain = 0
KTH1 120231Z 03001KT M01/M11 A3028 RMK A01 T10141113  RH  047%=      5-min Rain = 0
KTH1 120232Z 03002KT M01/M11 A3028 RMK A01 T10141114  RH  047%=      5-min Rain = 0
KTH1 120233Z 03001KT M02/M11 A3028 RMK A01 T10151114  RH  047%=      5-min Rain = 0
KTH1 120234Z 04001KT M02/M11 A3028 RMK A01 T10151114  RH  047%=      5-min Rain = 0
KTH1 120235Z 04001KT M02/M11 A3028 RMK A01 T10161114  RH  047%=      5-min Rain = 0
KTH1 120236Z 03001KT M02/M11 A3028 RMK A01 T10161114  RH  047%=      5-min Rain = 0
KTH1 120237Z 03001KT M02/M11 A3028 RMK A01 T10161114  RH  047%=      5-min Rain = 0
KTH1 120238Z 01002KT M02/M11 A3028 RMK A01 T10161114  RH  047%=      5-min Rain = 0
KTH1 120239Z 34003KT M02/M11 A3028 RMK A01 T10161114  RH  047%=      5-min Rain = 0
KTH1 120240Z 35002KT M02/M11 A3028 RMK A01 T10161114  RH  047%=      5-min Rain = 0
KTH1 120241Z 35002KT M02/M11 A3028 RMK A01 T10171114  RH  047%=      5-min Rain = 0
KTH1 120242Z 36002KT M02/M11 A3028 RMK A01 T10171114  RH  047%=      5-min Rain = 0
KTH1 120243Z 35003KT M02/M11 A3028 RMK A01 T10161114  RH  047%=      5-min Rain = 0
KTH1 120244Z 36002KT M02/M11 A3028 RMK A01 T10171114  RH  047%=      5-min Rain = 0
KTH1 120245Z 36002KT M02/M11 A3028 RMK A01 T10171114  RH  047%=      5-min Rain = 0
KTH1 120246Z 00002KT M02/M11 A3028 RMK A01 T10161114  RH  047%=      5-min Rain = 0
KTH1 120247Z 36003KT M02/M12 A3028 RMK A01 T10161115  RH  047%=      5-min Rain = 0
KTH1 120248Z 36002KT M02/M11 A3028 RMK A01 T10161114  RH  047%=      5-min Rain = 0
KTH1 120249Z 36003KT M02/M11 A3028 RMK A01 T10161114  RH  047%=      5-min Rain = 0
KTH1 120250Z 00003KT M02/M12 A3028 RMK A01 T10161115  RH  047%=      5-min Rain = 0
KTH1 120251Z 36003KT M02/M11 A3028 RMK A01 T10161114  RH  047%=      5-min Rain = 0
KTH1 120252Z 00003KT M02/M12 A3028 RMK A01 T10161115  RH  047%=      5-min Rain = 0
KTH1 120253Z 36003KT M02/M12 A3028 RMK A01 T10161115  RH  047%=      5-min Rain = 0
KTH1 120254Z 36003KT M02/M12 A3028 RMK A01 T10161115  RH  047%=      5-min Rain = 0
KTH1 120255Z 36003KT M02/M11 A3028 RMK A01 T10161114  RH  047%=      5-min Rain = 0
KTH1 120256Z 36003KT M02/M11 A3028 RMK A01 T10171114  RH  047%=      5-min Rain = 0
KTH1 120257Z 35003KT M02/M11 A3028 RMK A01 T10171114  RH  047%=      5-min Rain = 0
KTH1 120258Z 35003KT M02/M11 A3028 RMK A01 T10171114  RH  047%=      5-min Rain = 0
KTH1 120259Z 36003KT M02/M11 A3028 RMK A01 T10171114  RH  047%=      5-min Rain = 0
KTH1 120300Z 00003KT M02/M11 A3028 RMK A01 T10171114  RH  047%=      5-min Rain = 0
KTH1 120301Z 00003KT M02/M11 A3028 RMK A01 T10171114  RH  047%=      5-min Rain = 0
KTH1 120302Z 01003KT M02/M11 A3028 RMK A01 T10171114  RH  047%=      5-min Rain = 0
KTH1 120303Z 01002KT M02/M12 A3028 RMK A01 T10171115  RH  047%=      5-min Rain = 0
KTH1 120304Z 01002KT M02/M12 A3028 RMK A01 T10171115  RH  047%=      5-min Rain = 0
KTH1 120305Z 00002KT M02/M12 A3028 RMK A01 T10171115  RH  047%=      5-min Rain = 0
KTH1 120306Z 01002KT M02/M12 A3028 RMK A01 T10171115  RH  047%=      5-min Rain = 0
KTH1 120307Z 01002KT M02/M12 A3028 RMK A01 T10171115  RH  047%=      5-min Rain = 0
KTH1 120308Z 01002KT M02/M12 A3029 RMK A01 T10171115  RH  047%=      5-min Rain = 0
KTH1 120309Z 00001KT M02/M12 A3029 RMK A01 T10181115  RH  047%=      5-min Rain = 0
KTH1 120310Z 00001KT M02/M12 A3029 RMK A01 T10181116  RH  047%=      5-min Rain = 0
KTH1 120311Z 34002KT M02/M12 A3029 RMK A01 T10191116  RH  047%=      5-min Rain = 0
KTH1 120312Z 00002KT M02/M12 A3029 RMK A01 T10201116  RH  048%=      5-min Rain = 0
KTH1 120313Z 00002KT M02/M12 A3029 RMK A01 T10201116  RH  048%=      5-min Rain = 0
KTH1 120314Z 01002KT M02/M12 A3029 RMK A01 T10201116  RH  048%=      5-min Rain = 0
KTH1 120315Z 01002KT M02/M12 A3029 RMK A01 T10191115  RH  048%=      5-min Rain = 0
KTH1 120316Z 01002KT M02/M12 A3029 RMK A01 T10181115  RH  048%=      5-min Rain = 0
KTH1 120317Z 00002KT M02/M11 A3029 RMK A01 T10171114  RH  048%=      5-min Rain = 0
KTH1 120318Z 00002KT M02/M11 A3029 RMK A01 T10171114  RH  047%=      5-min Rain = 0
KTH1 120319Z 36002KT M02/M11 A3029 RMK A01 T10161114  RH  047%=      5-min Rain = 0
KTH1 120320Z 35002KT M02/M12 A3029 RMK A01 T10161115  RH  047%=      5-min Rain = 0
KTH1 120321Z 00002KT M02/M12 A3029 RMK A01 T10161115  RH  047%=      5-min Rain = 0
KTH1 120322Z 00002KT M02/M12 A3029 RMK A01 T10151115  RH  047%=      5-min Rain = 0
KTH1 120323Z 35002KT M02/M12 A3029 RMK A01 T10151115  RH  047%=      5-min Rain = 0
KTH1 120324Z 01002KT M02/M11 A3029 RMK A01 T10151114  RH  047%=      5-min Rain = 0
KTH1 120325Z 36002KT M01/M11 A3029 RMK A01 T10141110  RH  048%=      5-min Rain = 0
KTH1 120326Z 01002KT M01/M11 A3029 RMK A01 T10131110  RH  048%=      5-min Rain = 0
KTH1 120327Z 02002KT M01/M11 A3029 RMK A01 T10121109  RH  048%=      5-min Rain = 0
KTH1 120328Z 00002KT M01/M11 A3029 RMK A01 T10111110  RH  047%=      5-min Rain = 0
KTH1 120329Z 00002KT M01/M11 A3029 RMK A01 T10121111  RH  047%=      5-min Rain = 0
KTH1 120330Z 00002KT M01/M11 A3029 RMK A01 T10121112  RH  046%=      5-min Rain = 0
KTH1 120331Z 34002KT M01/M11 A3029 RMK A01 T10111113  RH  046%=      5-min Rain = 0
KTH1 120332Z 34002KT M01/M11 A3029 RMK A01 T10111111  RH  046%=      5-min Rain = 0
KTH1 120333Z 34002KT M01/M11 A3029 RMK A01 T10111110  RH  047%=      5-min Rain = 0
KTH1 120334Z 34002KT M01/M11 A3029 RMK A01 T10111109  RH  047%=      5-min Rain = 0
KTH1 120335Z 33002KT M01/M11 A3029 RMK A01 T10111108  RH  048%=      5-min Rain = 0
KTH1 120336Z 31002KT M01/M10 A3029 RMK A01 T10101103  RH  049%=      5-min Rain = 0
KTH1 120337Z 31002KT M01/M10 A3029 RMK A01 T10111100  RH  051%=      5-min Rain = 0
KTH1 120338Z 31002KT M01/M10 A3029 RMK A01 T10101100  RH  051%=      5-min Rain = 0
KTH1 120339Z 30001KT M01/M10 A3029 RMK A01 T10101099  RH  051%=      5-min Rain = 0
KTH1 120340Z 30002KT M01/M10 A3029 RMK A01 T10101101  RH  050%=      5-min Rain = 0
KTH1 120341Z 30002KT M01/M10 A3029 RMK A01 T10091097  RH  051%=      5-min Rain = 0
KTH1 120342Z 29002KT M01/M09 A303 RMK A01 T10091091  RH  054%=      5-min Rain = 0
KTH1 120343Z 30002KT M01/M09 A303 RMK A01 T10091086  RH  056%=      5-min Rain = 0
KTH1 120344Z 30001KT M01/M09 A303 RMK A01 T10091085  RH  056%=      5-min Rain = 0
KTH1 120345Z 30001KT M01/M09 A303 RMK A01 T10081085  RH  056%=      5-min Rain = 0
KTH1 120346Z 29001KT M01/M09 A303 RMK A01 T10091087  RH  055%=      5-min Rain = 0
KTH1 120347Z 29001KT M01/M09 A303 RMK A01 T10101086  RH  056%=      5-min Rain = 0
KTH1 120348Z 27001KT M01/M09 A303 RMK A01 T10101086  RH  056%=      5-min Rain = 0
KTH1 120349Z 30001KT M01/M09 A303 RMK A01 T10111086  RH  056%=      5-min Rain = 0
KTH1 120350Z 32001KT M01/M09 A303 RMK A01 T10121086  RH  057%=      5-min Rain = 0
KTH1 120351Z 30001KT M01/M09 A303 RMK A01 T10121089  RH  056%=      5-min Rain = 0
KTH1 120352Z 28001KT M01/M09 A303 RMK A01 T10131088  RH  057%=      5-min Rain = 0
KTH1 120353Z 30001KT M01/M09 A303 RMK A01 T10141088  RH  057%=      5-min Rain = 0
KTH1 120354Z 31000KT M02/M08 A303 RMK A01 T10151084  RH  060%=      5-min Rain = 0
KTH1 120355Z 33000KT M02/M08 A303 RMK A01 T10161081  RH  061%=      5-min Rain = 0
KTH1 120356Z 33001KT M02/M08 A303 RMK A01 T10171077  RH  063%=      5-min Rain = 0
KTH1 120357Z 03001KT M02/M08 A303 RMK A01 T10171079  RH  063%=      5-min Rain = 0
KTH1 120358Z 34001KT M02/M08 A303 RMK A01 T10181083  RH  061%=      5-min Rain = 0
KTH1 120359Z 02001KT M02/M08 A303 RMK A01 T10181084  RH  061%=      5-min Rain = 0
KTH1 120400Z 04002KT M02/M09 A303 RMK A01 T10181091  RH  057%=      5-min Rain = 0
KTH1 120401Z 03001KT M02/M10 A303 RMK A01 T10171100  RH  053%=      5-min Rain = 0
KTH1 120402Z 04001KT M02/M10 A303 RMK A01 T10171102  RH  052%=      5-min Rain = 0
KTH1 120403Z 04000KT M02/M10 A303 RMK A01 T10161101  RH  053%=      5-min Rain = 0
KTH1 120404Z 05000KT M02/M10 A303 RMK A01 T10161102  RH  052%=      5-min Rain = 0
KTH1 120405Z 00000KT M02/M10 A303 RMK A01 T10171103  RH  052%=      5-min Rain = 0
KTH1 120406Z 09000KT M02/M11 A303 RMK A01 T10171105  RH  051%=      5-min Rain = 0
KTH1 120407Z 09001KT M02/M11 A303 RMK A01 T10171107  RH  050%=      5-min Rain = 0
KTH1 120408Z 08001KT M02/M11 A303 RMK A01 T10171109  RH  050%=      5-min Rain = 0
KTH1 120409Z 11002KT M02/M11 A303 RMK A01 T10171110  RH  049%=      5-min Rain = 0
KTH1 120410Z 10002KT M02/M11 A303 RMK A01 T10171107  RH  050%=      5-min Rain = 0
KTH1 120411Z 11002KT M02/M10 A303 RMK A01 T10171103  RH  052%=      5-min Rain = 0
KTH1 120412Z 11002KT M02/M10 A303 RMK A01 T10191100  RH  054%=      5-min Rain = 0
KTH1 120413Z 11002KT M02/M10 A303 RMK A01 T10201101  RH  054%=      5-min Rain = 0
KTH1 120414Z 11002KT M02/M10 A303 RMK A01 T10231104  RH  053%=      5-min Rain = 0
KTH1 120415Z 10002KT M03/M11 A303 RMK A01 T10251107  RH  053%=      5-min Rain = 0
KTH1 120416Z 08002KT M03/M11 A303 RMK A01 T10271109  RH  053%=      5-min Rain = 0
KTH1 120417Z 08003KT M03/M11 A303 RMK A01 T10281110  RH  053%=      5-min Rain = 0
KTH1 120418Z 09003KT M03/M11 A303 RMK A01 T10271110  RH  053%=      5-min Rain = 0
KTH1 120419Z 09003KT M03/M11 A303 RMK A01 T10261111  RH  052%=      5-min Rain = 0
KTH1 120420Z 11003KT M03/M11 A303 RMK A01 T10261112  RH  052%=      5-min Rain = 0
KTH1 120421Z 11003KT M03/M11 A3031 RMK A01 T10261112  RH  051%=      5-min Rain = 0
KTH1 120422Z 11003KT M03/M11 A3031 RMK A01 T10261112  RH  051%=      5-min Rain = 0
KTH1 120423Z 11003KT M03/M11 A3031 RMK A01 T10271113  RH  051%=      5-min Rain = 0
KTH1 120424Z 11003KT M03/M11 A3031 RMK A01 T10271113  RH  051%=      5-min Rain = 0
KTH1 120425Z 12003KT M03/M11 A3031 RMK A01 T10271114  RH  051%=      5-min Rain = 0
KTH1 120426Z 12002KT M03/M11 A3031 RMK A01 T10271114  RH  051%=      5-min Rain = 0
KTH1 120427Z 12002KT M03/M11 A3031 RMK A01 T10281114  RH  051%=      5-min Rain = 0
KTH1 120428Z 11002KT M03/M11 A3031 RMK A01 T10271114  RH  051%=      5-min Rain = 0
KTH1 120429Z 11001KT M03/M12 A303 RMK A01 T10281115  RH  051%=      5-min Rain = 0
KTH1 120430Z 11001KT M03/M12 A303 RMK A01 T10281115  RH  051%=      5-min Rain = 0
KTH1 120431Z 10001KT M03/M12 A303 RMK A01 T10281115  RH  051%=      5-min Rain = 0
KTH1 120432Z 09000KT M03/M12 A303 RMK A01 T10281115  RH  051%=      5-min Rain = 0
KTH1 120433Z 00000KT M03/M12 A3031 RMK A01 T10281115  RH  051%=      5-min Rain = 0
KTH1 120434Z 00000KT M03/M12 A3031 RMK A01 T10291115  RH  052%=      5-min Rain = 0
KTH1 120435Z 00000KT M03/M11 A3031 RMK A01 T10291114  RH  052%=      5-min Rain = 0
KTH1 120436Z 00000KT M03/M11 A3031 RMK A01 T10291114  RH  052%=      5-min Rain = 0
KTH1 120437Z 00000KT M03/M11 A3031 RMK A01 T10291114  RH  052%=      5-min Rain = 0
KTH1 120438Z 00000KT M03/M11 A3031 RMK A01 T10291114  RH  052%=      5-min Rain = 0
KTH1 120439Z 00000KT M03/M11 A3031 RMK A01 T10291113  RH  052%=      5-min Rain = 0
KTH1 120440Z 00000KT M03/M11 A3031 RMK A01 T10291113  RH  053%=      5-min Rain = 0
KTH1 120441Z 00000KT M03/M11 A3031 RMK A01 T10291109  RH  054%=      5-min Rain = 0
KTH1 120442Z 00000KT M03/M10 A3031 RMK A01 T10291099  RH  058%=      5-min Rain = 0
KTH1 120443Z 00000KT M03/M10 A3031 RMK A01 T10291096  RH  060%=      5-min Rain = 0
KTH1 120444Z 26001KT M03/M09 A3031 RMK A01 T10281093  RH  061%=      5-min Rain = 0
KTH1 120445Z 26002KT M03/M09 A3031 RMK A01 T10251086  RH  063%=      5-min Rain = 0
KTH1 120446Z 26002KT M02/M08 A3031 RMK A01 T10241079  RH  066%=      5-min Rain = 0
KTH1 120447Z 25002KT M02/M07 A3031 RMK A01 T10231072  RH  069%=      5-min Rain = 0
KTH1 120448Z 25002KT M02/M07 A3032 RMK A01 T10231069  RH  071%=      5-min Rain = 0
KTH1 120449Z 24002KT M02/M07 A3032 RMK A01 T10231068  RH  071%=      5-min Rain = 0
KTH1 120450Z 23001KT M02/M07 A3032 RMK A01 T10241071  RH  070%=      5-min Rain = 0
KTH1 120451Z 24001KT M03/M07 A3032 RMK A01 T10251074  RH  069%=      5-min Rain = 0
KTH1 120452Z 24001KT M03/M08 A3032 RMK A01 T10261077  RH  068%=      5-min Rain = 0
KTH1 120453Z 24001KT M03/M08 A3032 RMK A01 T10261079  RH  067%=      5-min Rain = 0
KTH1 120454Z 24001KT M03/M08 A3032 RMK A01 T10271080  RH  067%=      5-min Rain = 0
KTH1 120455Z 23001KT M03/M08 A3032 RMK A01 T10281079  RH  068%=      5-min Rain = 0
KTH1 120456Z 23000KT M03/M08 A3032 RMK A01 T10281077  RH  069%=      5-min Rain = 0
KTH1 120457Z 25000KT M03/M08 A3032 RMK A01 T10281078  RH  069%=      5-min Rain = 0
KTH1 120458Z 25000KT M03/M08 A3032 RMK A01 T10291078  RH  069%=      5-min Rain = 0
KTH1 120459Z 25001KT M03/M08 A3032 RMK A01 T10291077  RH  069%=      5-min Rain = 0
KTH1 120500Z 25001KT M03/M08 A3032 RMK A01 T10291077  RH  070%=      5-min Rain = 0
KTH1 120501Z 25001KT M03/M08 A3032 RMK A01 T10301078  RH  070%=      5-min Rain = 0
KTH1 120502Z 25000KT M03/M08 A3032 RMK A01 T10301078  RH  069%=      5-min Rain = 0
KTH1 120503Z 27000KT M03/M08 A3032 RMK A01 T10311079  RH  069%=      5-min Rain = 0
KTH1 120504Z 30001KT M03/M08 A3031 RMK A01 T10301079  RH  069%=      5-min Rain = 0
KTH1 120505Z 31001KT M03/M08 A3031 RMK A01 T10311079  RH  069%=      5-min Rain = 0
KTH1 120506Z 31001KT M03/M08 A3031 RMK A01 T10311077  RH  070%=      5-min Rain = 0
KTH1 120507Z 31001KT M03/M08 A3031 RMK A01 T10311075  RH  071%=      5-min Rain = 0
KTH1 120508Z 30001KT M03/M07 A3031 RMK A01 T10311074  RH  072%=      5-min Rain = 0
KTH1 120509Z 30001KT M03/M07 A3031 RMK A01 T10311074  RH  072%=      5-min Rain = 0
KTH1 120510Z 28001KT M03/M07 A3031 RMK A01 T10311073  RH  073%=      5-min Rain = 0
KTH1 120511Z 27001KT M03/M07 A3031 RMK A01 T10311072  RH  073%=      5-min Rain = 0
KTH1 120512Z 28002KT M03/M07 A3032 RMK A01 T10301071  RH  073%=      5-min Rain = 0
KTH1 120513Z 28002KT M03/M07 A3031 RMK A01 T10301073  RH  072%=      5-min Rain = 0
KTH1 120514Z 26002KT M03/M07 A3031 RMK A01 T10301074  RH  071%=      5-min Rain = 0
KTH1 120515Z 27001KT M03/M08 A3031 RMK A01 T10301078  RH  070%=      5-min Rain = 0
KTH1 120516Z 28001KT M03/M08 A3032 RMK A01 T10311081  RH  069%=      5-min Rain = 0
KTH1 120517Z 27002KT M03/M08 A3032 RMK A01 T10321081  RH  069%=      5-min Rain = 0
KTH1 120518Z 26002KT M03/M08 A3032 RMK A01 T10321080  RH  070%=      5-min Rain = 0
KTH1 120519Z 27002KT M03/M08 A3032 RMK A01 T10321081  RH  069%=      5-min Rain = 0
KTH1 120520Z 27002KT M03/M08 A3032 RMK A01 T10331081  RH  069%=      5-min Rain = 0
KTH1 120521Z 26002KT M03/M08 A3032 RMK A01 T10321079  RH  070%=      5-min Rain = 0
KTH1 120522Z 27002KT M03/M08 A3032 RMK A01 T10331079  RH  070%=      5-min Rain = 0
KTH1 120523Z 28001KT M03/M08 A3032 RMK A01 T10331081  RH  069%=      5-min Rain = 0
KTH1 120524Z 28001KT M03/M09 A3032 RMK A01 T10331085  RH  068%=      5-min Rain = 0
KTH1 120525Z 27001KT M03/M09 A3032 RMK A01 T10341086  RH  067%=      5-min Rain = 0
KTH1 120526Z 29000KT M04/M09 A3032 RMK A01 T10351087  RH  067%=      5-min Rain = 0
KTH1 120527Z 29000KT M04/M09 A3032 RMK A01 T10351086  RH  068%=      5-min Rain = 0
KTH1 120528Z 29000KT M04/M09 A3032 RMK A01 T10351087  RH  067%=      5-min Rain = 0
KTH1 120529Z 29000KT M04/M09 A3032 RMK A01 T10361088  RH  067%=      5-min Rain = 0
KTH1 120530Z 00000KT M04/M09 A3032 RMK A01 T10361089  RH  066%=      5-min Rain = 0
KTH1 120531Z 00000KT M04/M09 A3032 RMK A01 T10361089  RH  067%=      5-min Rain = 0
KTH1 120532Z 00000KT M04/M09 A3032 RMK A01 T10361089  RH  067%=      5-min Rain = 0
KTH1 120533Z 00000KT M04/M09 A3032 RMK A01 T10361090  RH  066%=      5-min Rain = 0
KTH1 120534Z 29000KT M04/M09 A3032 RMK A01 T10361092  RH  065%=      5-min Rain = 0
KTH1 120535Z 28001KT M04/M09 A3032 RMK A01 T10361090  RH  066%=      5-min Rain = 0
KTH1 120536Z 27001KT M04/M09 A3032 RMK A01 T10361088  RH  067%=      5-min Rain = 0
KTH1 120537Z 27001KT M04/M09 A3032 RMK A01 T10361088  RH  067%=      5-min Rain = 0
KTH1 120538Z 28001KT M04/M09 A3032 RMK A01 T10361087  RH  068%=      5-min Rain = 0
KTH1 120539Z 28001KT M04/M09 A3032 RMK A01 T10361085  RH  069%=      5-min Rain = 0
KTH1 120540Z 28001KT M04/M09 A3032 RMK A01 T10361085  RH  069%=      5-min Rain = 0
KTH1 120541Z 28001KT M04/M08 A3032 RMK A01 T10361083  RH  070%=      5-min Rain = 0
KTH1 120542Z 27001KT M04/M08 A3032 RMK A01 T10361081  RH  071%=      5-min Rain = 0
KTH1 120543Z 27001KT M04/M08 A3032 RMK A01 T10361083  RH  070%=      5-min Rain = 0
KTH1 120544Z 27000KT M04/M09 A3032 RMK A01 T10361085  RH  068%=      5-min Rain = 0
KTH1 120545Z 00000KT M04/M09 A3032 RMK A01 T10361086  RH  068%=      5-min Rain = 0
KTH1 120546Z 00000KT M04/M09 A3032 RMK A01 T10361087  RH  068%=      5-min Rain = 0
KTH1 120547Z 00000KT M04/M09 A3032 RMK A01 T10361087  RH  068%=      5-min Rain = 0
KTH1 120548Z 00001KT M04/M09 A3032 RMK A01 T10371087  RH  068%=      5-min Rain = 0
KTH1 120549Z 00001KT M04/M09 A3032 RMK A01 T10381086  RH  069%=      5-min Rain = 0
KTH1 120550Z 00001KT M04/M09 A3032 RMK A01 T10381085  RH  070%=      5-min Rain = 0
KTH1 120551Z 34001KT M04/M08 A3032 RMK A01 T10381084  RH  071%=      5-min Rain = 0
KTH1 120552Z 32001KT M04/M08 A3032 RMK A01 T10381083  RH  071%=      5-min Rain = 0
KTH1 120553Z 33001KT M04/M08 A3032 RMK A01 T10381082  RH  071%=      5-min Rain = 0
KTH1 120554Z 33001KT M04/M08 A3032 RMK A01 T10391083  RH  071%=      5-min Rain = 0
KTH1 120555Z 32001KT M04/M08 A3032 RMK A01 T10391082  RH  072%=      5-min Rain = 0
KTH1 120556Z 32001KT M04/M08 A3032 RMK A01 T10381080  RH  073%=      5-min Rain = 0
KTH1 120557Z 31002KT M04/M08 A3032 RMK A01 T10381078  RH  074%=      5-min Rain = 0
KTH1 120558Z 29002KT M04/M08 A3032 RMK A01 T10381076  RH  074%=      5-min Rain = 0
KTH1 120559Z 28002KT M04/M07 A3032 RMK A01 T10371073  RH  076%=      5-min Rain = 0

Page generated in 0.0721 seconds.